<?xml version="1.0" encoding="UTF-8" ?>
<gpx version="1.1" xmlns:xsi="http://www.w3.org/2001/XMLSchema-instance"
    xmlns="http://www.topografix.com/GPX/1/1"
    xsi:schemaLocation="http://www.topografix.com/GPX/1/1 http://www.topografix.com/GPX/1/1/gpx.xsd"
    creator="Openrunner - https://www.openrunner.com" >	<trk>
	                   <name>Cyclo-Villepreusienne 48km_2026_-22585582</name>
						<trkseg>
					<trkpt lat="48.830530" lon="2.000690">
						<ele>113</ele>
						<time>2026-04-14T07:16:02Z</time>
					</trkpt>
					<trkpt lat="48.830510" lon="2.000710">
						<ele>113</ele>
						<time>2026-04-14T07:16:02Z</time>
					</trkpt>
					<trkpt lat="48.830440" lon="2.000810">
						<ele>113</ele>
						<time>2026-04-14T07:16:04Z</time>
					</trkpt>
					<trkpt lat="48.830350" lon="2.000930">
						<ele>112</ele>
						<time>2026-04-14T07:16:06Z</time>
					</trkpt>
					<trkpt lat="48.830250" lon="2.001120">
						<ele>112</ele>
						<time>2026-04-14T07:16:09Z</time>
					</trkpt>
					<trkpt lat="48.830190" lon="2.001340">
						<ele>112</ele>
						<time>2026-04-14T07:16:12Z</time>
					</trkpt>
					<trkpt lat="48.830240" lon="2.001890">
						<ele>111</ele>
						<time>2026-04-14T07:16:18Z</time>
					</trkpt>
					<trkpt lat="48.830270" lon="2.002400">
						<ele>111</ele>
						<time>2026-04-14T07:16:24Z</time>
					</trkpt>
					<trkpt lat="48.830280" lon="2.002570">
						<ele>111</ele>
						<time>2026-04-14T07:16:26Z</time>
					</trkpt>
					<trkpt lat="48.830310" lon="2.002870">
						<ele>111</ele>
						<time>2026-04-14T07:16:30Z</time>
					</trkpt>
					<trkpt lat="48.830380" lon="2.003670">
						<ele>109</ele>
						<time>2026-04-14T07:16:39Z</time>
					</trkpt>
					<trkpt lat="48.830430" lon="2.004020">
						<ele>109</ele>
						<time>2026-04-14T07:16:44Z</time>
					</trkpt>
					<trkpt lat="48.830520" lon="2.004530">
						<ele>107</ele>
						<time>2026-04-14T07:16:50Z</time>
					</trkpt>
					<trkpt lat="48.830540" lon="2.004630">
						<ele>107</ele>
						<time>2026-04-14T07:16:51Z</time>
					</trkpt>
					<trkpt lat="48.830570" lon="2.004830">
						<ele>107</ele>
						<time>2026-04-14T07:16:53Z</time>
					</trkpt>
					<trkpt lat="48.830590" lon="2.004980">
						<ele>107</ele>
						<time>2026-04-14T07:16:55Z</time>
					</trkpt>
					<trkpt lat="48.830620" lon="2.005110">
						<ele>106</ele>
						<time>2026-04-14T07:16:57Z</time>
					</trkpt>
					<trkpt lat="48.830650" lon="2.005330">
						<ele>106</ele>
						<time>2026-04-14T07:16:59Z</time>
					</trkpt>
					<trkpt lat="48.830780" lon="2.005800">
						<ele>106</ele>
						<time>2026-04-14T07:17:05Z</time>
					</trkpt>
					<trkpt lat="48.830920" lon="2.006300">
						<ele>105</ele>
						<time>2026-04-14T07:17:12Z</time>
					</trkpt>
					<trkpt lat="48.831150" lon="2.006740">
						<ele>105</ele>
						<time>2026-04-14T07:17:18Z</time>
					</trkpt>
					<trkpt lat="48.831510" lon="2.007420">
						<ele>105</ele>
						<time>2026-04-14T07:17:29Z</time>
					</trkpt>
					<trkpt lat="48.832050" lon="2.008200">
						<ele>106</ele>
						<time>2026-04-14T07:17:42Z</time>
					</trkpt>
					<trkpt lat="48.832320" lon="2.008570">
						<ele>105</ele>
						<time>2026-04-14T07:17:48Z</time>
					</trkpt>
					<trkpt lat="48.832600" lon="2.008860">
						<ele>105</ele>
						<time>2026-04-14T07:17:54Z</time>
					</trkpt>
					<trkpt lat="48.832680" lon="2.008930">
						<ele>105</ele>
						<time>2026-04-14T07:17:56Z</time>
					</trkpt>
					<trkpt lat="48.832760" lon="2.009020">
						<ele>105</ele>
						<time>2026-04-14T07:17:58Z</time>
					</trkpt>
					<trkpt lat="48.833200" lon="2.009440">
						<ele>104</ele>
						<time>2026-04-14T07:18:07Z</time>
					</trkpt>
					<trkpt lat="48.833220" lon="2.009460">
						<ele>104</ele>
						<time>2026-04-14T07:18:07Z</time>
					</trkpt>
					<trkpt lat="48.833430" lon="2.009860">
						<ele>102</ele>
						<time>2026-04-14T07:18:13Z</time>
					</trkpt>
					<trkpt lat="48.833660" lon="2.010290">
						<ele>99</ele>
						<time>2026-04-14T07:18:20Z</time>
					</trkpt>
					<trkpt lat="48.833840" lon="2.010840">
						<ele>96</ele>
						<time>2026-04-14T07:18:27Z</time>
					</trkpt>
					<trkpt lat="48.833900" lon="2.010990">
						<ele>95</ele>
						<time>2026-04-14T07:18:29Z</time>
					</trkpt>
					<trkpt lat="48.833960" lon="2.011180">
						<ele>95</ele>
						<time>2026-04-14T07:18:32Z</time>
					</trkpt>
					<trkpt lat="48.833860" lon="2.011400">
						<ele>94</ele>
						<time>2026-04-14T07:18:35Z</time>
					</trkpt>
					<trkpt lat="48.833900" lon="2.011970">
						<ele>93</ele>
						<time>2026-04-14T07:18:41Z</time>
					</trkpt>
					<trkpt lat="48.833900" lon="2.012030">
						<ele>93</ele>
						<time>2026-04-14T07:18:42Z</time>
					</trkpt>
					<trkpt lat="48.833920" lon="2.012140">
						<ele>93</ele>
						<time>2026-04-14T07:18:44Z</time>
					</trkpt>
					<trkpt lat="48.833960" lon="2.012200">
						<ele>93</ele>
						<time>2026-04-14T07:18:45Z</time>
					</trkpt>
					<trkpt lat="48.834420" lon="2.012860">
						<ele>91</ele>
						<time>2026-04-14T07:18:56Z</time>
					</trkpt>
					<trkpt lat="48.834460" lon="2.012920">
						<ele>90</ele>
						<time>2026-04-14T07:18:57Z</time>
					</trkpt>
					<trkpt lat="48.834540" lon="2.012800">
						<ele>90</ele>
						<time>2026-04-14T07:18:59Z</time>
					</trkpt>
					<trkpt lat="48.834580" lon="2.012730">
						<ele>90</ele>
						<time>2026-04-14T07:19:00Z</time>
					</trkpt>
					<trkpt lat="48.834740" lon="2.012450">
						<ele>90</ele>
						<time>2026-04-14T07:19:04Z</time>
					</trkpt>
					<trkpt lat="48.834790" lon="2.012360">
						<ele>90</ele>
						<time>2026-04-14T07:19:06Z</time>
					</trkpt>
					<trkpt lat="48.834830" lon="2.012310">
						<ele>90</ele>
						<time>2026-04-14T07:19:07Z</time>
					</trkpt>
					<trkpt lat="48.834970" lon="2.012120">
						<ele>90</ele>
						<time>2026-04-14T07:19:10Z</time>
					</trkpt>
					<trkpt lat="48.835170" lon="2.011860">
						<ele>90</ele>
						<time>2026-04-14T07:19:15Z</time>
					</trkpt>
					<trkpt lat="48.835540" lon="2.011520">
						<ele>90</ele>
						<time>2026-04-14T07:19:22Z</time>
					</trkpt>
					<trkpt lat="48.835680" lon="2.011420">
						<ele>90</ele>
						<time>2026-04-14T07:19:25Z</time>
					</trkpt>
					<trkpt lat="48.835770" lon="2.011410">
						<ele>89</ele>
						<time>2026-04-14T07:19:27Z</time>
					</trkpt>
					<trkpt lat="48.836400" lon="2.011560">
						<ele>89</ele>
						<time>2026-04-14T07:19:38Z</time>
					</trkpt>
					<trkpt lat="48.836550" lon="2.011600">
						<ele>90</ele>
						<time>2026-04-14T07:19:41Z</time>
					</trkpt>
					<trkpt lat="48.837850" lon="2.011910">
						<ele>89</ele>
						<time>2026-04-14T07:20:04Z</time>
					</trkpt>
					<trkpt lat="48.837930" lon="2.011910">
						<ele>88</ele>
						<time>2026-04-14T07:20:05Z</time>
					</trkpt>
					<trkpt lat="48.838060" lon="2.011900">
						<ele>88</ele>
						<time>2026-04-14T07:20:08Z</time>
					</trkpt>
					<trkpt lat="48.838170" lon="2.011870">
						<ele>88</ele>
						<time>2026-04-14T07:20:10Z</time>
					</trkpt>
					<trkpt lat="48.838300" lon="2.011740">
						<ele>87</ele>
						<time>2026-04-14T07:20:13Z</time>
					</trkpt>
					<trkpt lat="48.838400" lon="2.011570">
						<ele>87</ele>
						<time>2026-04-14T07:20:15Z</time>
					</trkpt>
					<trkpt lat="48.838740" lon="2.010830">
						<ele>85</ele>
						<time>2026-04-14T07:20:26Z</time>
					</trkpt>
					<trkpt lat="48.838810" lon="2.010690">
						<ele>85</ele>
						<time>2026-04-14T07:20:28Z</time>
					</trkpt>
					<trkpt lat="48.838900" lon="2.010580">
						<ele>85</ele>
						<time>2026-04-14T07:20:30Z</time>
					</trkpt>
					<trkpt lat="48.839270" lon="2.010180">
						<ele>84</ele>
						<time>2026-04-14T07:20:38Z</time>
					</trkpt>
					<trkpt lat="48.839760" lon="2.009690">
						<ele>84</ele>
						<time>2026-04-14T07:20:48Z</time>
					</trkpt>
					<trkpt lat="48.840210" lon="2.009210">
						<ele>84</ele>
						<time>2026-04-14T07:20:58Z</time>
					</trkpt>
					<trkpt lat="48.840340" lon="2.009160">
						<ele>84</ele>
						<time>2026-04-14T07:21:01Z</time>
					</trkpt>
					<trkpt lat="48.840380" lon="2.009130">
						<ele>84</ele>
						<time>2026-04-14T07:21:01Z</time>
					</trkpt>
					<trkpt lat="48.840440" lon="2.009150">
						<ele>84</ele>
						<time>2026-04-14T07:21:02Z</time>
					</trkpt>
					<trkpt lat="48.840490" lon="2.009140">
						<ele>84</ele>
						<time>2026-04-14T07:21:03Z</time>
					</trkpt>
					<trkpt lat="48.840520" lon="2.009100">
						<ele>84</ele>
						<time>2026-04-14T07:21:04Z</time>
					</trkpt>
					<trkpt lat="48.840550" lon="2.009050">
						<ele>84</ele>
						<time>2026-04-14T07:21:05Z</time>
					</trkpt>
					<trkpt lat="48.840570" lon="2.008990">
						<ele>84</ele>
						<time>2026-04-14T07:21:06Z</time>
					</trkpt>
					<trkpt lat="48.840570" lon="2.008930">
						<ele>84</ele>
						<time>2026-04-14T07:21:06Z</time>
					</trkpt>
					<trkpt lat="48.840560" lon="2.008860">
						<ele>84</ele>
						<time>2026-04-14T07:21:07Z</time>
					</trkpt>
					<trkpt lat="48.840640" lon="2.008680">
						<ele>84</ele>
						<time>2026-04-14T07:21:10Z</time>
					</trkpt>
					<trkpt lat="48.841610" lon="2.007420">
						<ele>81</ele>
						<time>2026-04-14T07:21:32Z</time>
					</trkpt>
					<trkpt lat="48.841780" lon="2.007140">
						<ele>81</ele>
						<time>2026-04-14T07:21:37Z</time>
					</trkpt>
					<trkpt lat="48.841890" lon="2.006930">
						<ele>81</ele>
						<time>2026-04-14T07:21:40Z</time>
					</trkpt>
					<trkpt lat="48.842060" lon="2.006580">
						<ele>81</ele>
						<time>2026-04-14T07:21:45Z</time>
					</trkpt>
					<trkpt lat="48.842240" lon="2.006150">
						<ele>83</ele>
						<time>2026-04-14T07:21:51Z</time>
					</trkpt>
					<trkpt lat="48.842390" lon="2.005870">
						<ele>84</ele>
						<time>2026-04-14T07:21:55Z</time>
					</trkpt>
					<trkpt lat="48.842610" lon="2.005510">
						<ele>84</ele>
						<time>2026-04-14T07:22:01Z</time>
					</trkpt>
					<trkpt lat="48.842930" lon="2.005040">
						<ele>85</ele>
						<time>2026-04-14T07:22:09Z</time>
					</trkpt>
					<trkpt lat="48.843050" lon="2.004840">
						<ele>85</ele>
						<time>2026-04-14T07:22:12Z</time>
					</trkpt>
					<trkpt lat="48.843140" lon="2.004660">
						<ele>84</ele>
						<time>2026-04-14T07:22:15Z</time>
					</trkpt>
					<trkpt lat="48.843240" lon="2.004440">
						<ele>84</ele>
						<time>2026-04-14T07:22:18Z</time>
					</trkpt>
					<trkpt lat="48.843460" lon="2.003570">
						<ele>82</ele>
						<time>2026-04-14T07:22:29Z</time>
					</trkpt>
					<trkpt lat="48.843920" lon="2.001590">
						<ele>84</ele>
						<time>2026-04-14T07:22:53Z</time>
					</trkpt>
					<trkpt lat="48.843940" lon="2.001500">
						<ele>83</ele>
						<time>2026-04-14T07:22:55Z</time>
					</trkpt>
					<trkpt lat="48.844020" lon="2.001160">
						<ele>83</ele>
						<time>2026-04-14T07:22:59Z</time>
					</trkpt>
					<trkpt lat="48.844710" lon="1.998600">
						<ele>85</ele>
						<time>2026-04-14T07:23:31Z</time>
					</trkpt>
					<trkpt lat="48.844770" lon="1.998400">
						<ele>85</ele>
						<time>2026-04-14T07:23:34Z</time>
					</trkpt>
					<trkpt lat="48.844810" lon="1.998300">
						<ele>85</ele>
						<time>2026-04-14T07:23:35Z</time>
					</trkpt>
					<trkpt lat="48.844850" lon="1.998200">
						<ele>84</ele>
						<time>2026-04-14T07:23:37Z</time>
					</trkpt>
					<trkpt lat="48.845070" lon="1.997760">
						<ele>83</ele>
						<time>2026-04-14T07:23:43Z</time>
					</trkpt>
					<trkpt lat="48.846140" lon="1.995590">
						<ele>81</ele>
						<time>2026-04-14T07:24:15Z</time>
					</trkpt>
					<trkpt lat="48.846300" lon="1.995360">
						<ele>81</ele>
						<time>2026-04-14T07:24:19Z</time>
					</trkpt>
					<trkpt lat="48.847740" lon="1.993890">
						<ele>85</ele>
						<time>2026-04-14T07:24:50Z</time>
					</trkpt>
					<trkpt lat="48.848580" lon="1.993050">
						<ele>84</ele>
						<time>2026-04-14T07:25:07Z</time>
					</trkpt>
					<trkpt lat="48.848790" lon="1.992800">
						<ele>83</ele>
						<time>2026-04-14T07:25:12Z</time>
					</trkpt>
					<trkpt lat="48.848830" lon="1.992830">
						<ele>83</ele>
						<time>2026-04-14T07:25:13Z</time>
					</trkpt>
					<trkpt lat="48.848870" lon="1.992820">
						<ele>83</ele>
						<time>2026-04-14T07:25:14Z</time>
					</trkpt>
					<trkpt lat="48.848900" lon="1.992760">
						<ele>83</ele>
						<time>2026-04-14T07:25:15Z</time>
					</trkpt>
					<trkpt lat="48.848900" lon="1.992690">
						<ele>83</ele>
						<time>2026-04-14T07:25:15Z</time>
					</trkpt>
					<trkpt lat="48.849030" lon="1.992560">
						<ele>82</ele>
						<time>2026-04-14T07:25:18Z</time>
					</trkpt>
					<trkpt lat="48.849370" lon="1.992150">
						<ele>81</ele>
						<time>2026-04-14T07:25:26Z</time>
					</trkpt>
					<trkpt lat="48.849710" lon="1.991590">
						<ele>80</ele>
						<time>2026-04-14T07:25:35Z</time>
					</trkpt>
					<trkpt lat="48.850050" lon="1.990800">
						<ele>79</ele>
						<time>2026-04-14T07:25:46Z</time>
					</trkpt>
					<trkpt lat="48.850260" lon="1.990200">
						<ele>82</ele>
						<time>2026-04-14T07:25:54Z</time>
					</trkpt>
					<trkpt lat="48.850370" lon="1.989890">
						<ele>83</ele>
						<time>2026-04-14T07:25:58Z</time>
					</trkpt>
					<trkpt lat="48.850870" lon="1.988580">
						<ele>84</ele>
						<time>2026-04-14T07:26:16Z</time>
					</trkpt>
					<trkpt lat="48.850980" lon="1.988330">
						<ele>84</ele>
						<time>2026-04-14T07:26:19Z</time>
					</trkpt>
					<trkpt lat="48.851000" lon="1.988290">
						<ele>84</ele>
						<time>2026-04-14T07:26:20Z</time>
					</trkpt>
					<trkpt lat="48.851080" lon="1.988210">
						<ele>84</ele>
						<time>2026-04-14T07:26:21Z</time>
					</trkpt>
					<trkpt lat="48.851090" lon="1.988320">
						<ele>85</ele>
						<time>2026-04-14T07:26:23Z</time>
					</trkpt>
					<trkpt lat="48.851120" lon="1.988530">
						<ele>86</ele>
						<time>2026-04-14T07:26:25Z</time>
					</trkpt>
					<trkpt lat="48.851170" lon="1.988690">
						<ele>87</ele>
						<time>2026-04-14T07:26:27Z</time>
					</trkpt>
					<trkpt lat="48.851260" lon="1.988890">
						<ele>89</ele>
						<time>2026-04-14T07:26:30Z</time>
					</trkpt>
					<trkpt lat="48.851340" lon="1.989020">
						<ele>90</ele>
						<time>2026-04-14T07:26:32Z</time>
					</trkpt>
					<trkpt lat="48.851680" lon="1.989520">
						<ele>94</ele>
						<time>2026-04-14T07:26:41Z</time>
					</trkpt>
					<trkpt lat="48.851740" lon="1.989620">
						<ele>94</ele>
						<time>2026-04-14T07:26:42Z</time>
					</trkpt>
					<trkpt lat="48.851830" lon="1.989810">
						<ele>96</ele>
						<time>2026-04-14T07:26:45Z</time>
					</trkpt>
					<trkpt lat="48.852010" lon="1.990290">
						<ele>99</ele>
						<time>2026-04-14T07:26:51Z</time>
					</trkpt>
					<trkpt lat="48.852240" lon="1.990880">
						<ele>103</ele>
						<time>2026-04-14T07:27:00Z</time>
					</trkpt>
					<trkpt lat="48.852460" lon="1.991400">
						<ele>107</ele>
						<time>2026-04-14T07:27:07Z</time>
					</trkpt>
					<trkpt lat="48.852620" lon="1.991680">
						<ele>108</ele>
						<time>2026-04-14T07:27:11Z</time>
					</trkpt>
					<trkpt lat="48.853000" lon="1.992340">
						<ele>110</ele>
						<time>2026-04-14T07:27:21Z</time>
					</trkpt>
					<trkpt lat="48.853130" lon="1.992630">
						<ele>112</ele>
						<time>2026-04-14T07:27:25Z</time>
					</trkpt>
					<trkpt lat="48.853300" lon="1.993120">
						<ele>114</ele>
						<time>2026-04-14T07:27:32Z</time>
					</trkpt>
					<trkpt lat="48.853420" lon="1.993680">
						<ele>114</ele>
						<time>2026-04-14T07:27:39Z</time>
					</trkpt>
					<trkpt lat="48.853630" lon="1.994980">
						<ele>112</ele>
						<time>2026-04-14T07:27:55Z</time>
					</trkpt>
					<trkpt lat="48.853730" lon="1.995430">
						<ele>111</ele>
						<time>2026-04-14T07:28:00Z</time>
					</trkpt>
					<trkpt lat="48.854010" lon="1.996150">
						<ele>114</ele>
						<time>2026-04-14T07:28:10Z</time>
					</trkpt>
					<trkpt lat="48.854600" lon="1.997600">
						<ele>112</ele>
						<time>2026-04-14T07:28:30Z</time>
					</trkpt>
					<trkpt lat="48.854770" lon="1.998000">
						<ele>111</ele>
						<time>2026-04-14T07:28:35Z</time>
					</trkpt>
					<trkpt lat="48.855180" lon="1.998750">
						<ele>112</ele>
						<time>2026-04-14T07:28:47Z</time>
					</trkpt>
					<trkpt lat="48.856080" lon="2.000470">
						<ele>113</ele>
						<time>2026-04-14T07:29:13Z</time>
					</trkpt>
					<trkpt lat="48.856580" lon="2.001830">
						<ele>111</ele>
						<time>2026-04-14T07:29:31Z</time>
					</trkpt>
					<trkpt lat="48.856710" lon="2.002190">
						<ele>110</ele>
						<time>2026-04-14T07:29:36Z</time>
					</trkpt>
					<trkpt lat="48.856990" lon="2.002890">
						<ele>108</ele>
						<time>2026-04-14T07:29:45Z</time>
					</trkpt>
					<trkpt lat="48.857520" lon="2.003950">
						<ele>107</ele>
						<time>2026-04-14T07:30:01Z</time>
					</trkpt>
					<trkpt lat="48.857620" lon="2.004150">
						<ele>107</ele>
						<time>2026-04-14T07:30:04Z</time>
					</trkpt>
					<trkpt lat="48.857650" lon="2.004200">
						<ele>107</ele>
						<time>2026-04-14T07:30:05Z</time>
					</trkpt>
					<trkpt lat="48.857750" lon="2.004390">
						<ele>107</ele>
						<time>2026-04-14T07:30:07Z</time>
					</trkpt>
					<trkpt lat="48.858130" lon="2.005180">
						<ele>107</ele>
						<time>2026-04-14T07:30:19Z</time>
					</trkpt>
					<trkpt lat="48.858600" lon="2.006110">
						<ele>111</ele>
						<time>2026-04-14T07:30:33Z</time>
					</trkpt>
					<trkpt lat="48.858680" lon="2.006330">
						<ele>112</ele>
						<time>2026-04-14T07:30:35Z</time>
					</trkpt>
					<trkpt lat="48.858740" lon="2.006260">
						<ele>112</ele>
						<time>2026-04-14T07:30:37Z</time>
					</trkpt>
					<trkpt lat="48.858780" lon="2.006220">
						<ele>112</ele>
						<time>2026-04-14T07:30:38Z</time>
					</trkpt>
					<trkpt lat="48.858810" lon="2.006210">
						<ele>112</ele>
						<time>2026-04-14T07:30:38Z</time>
					</trkpt>
					<trkpt lat="48.858980" lon="2.006220">
						<ele>112</ele>
						<time>2026-04-14T07:30:41Z</time>
					</trkpt>
					<trkpt lat="48.859030" lon="2.006250">
						<ele>112</ele>
						<time>2026-04-14T07:30:42Z</time>
					</trkpt>
					<trkpt lat="48.859100" lon="2.006320">
						<ele>113</ele>
						<time>2026-04-14T07:30:44Z</time>
					</trkpt>
					<trkpt lat="48.859150" lon="2.006360">
						<ele>113</ele>
						<time>2026-04-14T07:30:45Z</time>
					</trkpt>
					<trkpt lat="48.859160" lon="2.006400">
						<ele>113</ele>
						<time>2026-04-14T07:30:45Z</time>
					</trkpt>
					<trkpt lat="48.859190" lon="2.006540">
						<ele>114</ele>
						<time>2026-04-14T07:30:47Z</time>
					</trkpt>
					<trkpt lat="48.859200" lon="2.006660">
						<ele>114</ele>
						<time>2026-04-14T07:30:48Z</time>
					</trkpt>
					<trkpt lat="48.859220" lon="2.006650">
						<ele>114</ele>
						<time>2026-04-14T07:30:49Z</time>
					</trkpt>
					<trkpt lat="48.859240" lon="2.006600">
						<ele>114</ele>
						<time>2026-04-14T07:30:49Z</time>
					</trkpt>
					<trkpt lat="48.859290" lon="2.006310">
						<ele>113</ele>
						<time>2026-04-14T07:30:53Z</time>
					</trkpt>
					<trkpt lat="48.859410" lon="2.005810">
						<ele>112</ele>
						<time>2026-04-14T07:30:59Z</time>
					</trkpt>
					<trkpt lat="48.859800" lon="2.004260">
						<ele>119</ele>
						<time>2026-04-14T07:31:19Z</time>
					</trkpt>
					<trkpt lat="48.859840" lon="2.004050">
						<ele>119</ele>
						<time>2026-04-14T07:31:21Z</time>
					</trkpt>
					<trkpt lat="48.860120" lon="2.003000">
						<ele>124</ele>
						<time>2026-04-14T07:31:34Z</time>
					</trkpt>
					<trkpt lat="48.861060" lon="1.998990">
						<ele>128</ele>
						<time>2026-04-14T07:32:24Z</time>
					</trkpt>
					<trkpt lat="48.861510" lon="1.997050">
						<ele>122</ele>
						<time>2026-04-14T07:32:48Z</time>
					</trkpt>
					<trkpt lat="48.861560" lon="1.996740">
						<ele>120</ele>
						<time>2026-04-14T07:32:52Z</time>
					</trkpt>
					<trkpt lat="48.861680" lon="1.996200">
						<ele>119</ele>
						<time>2026-04-14T07:32:59Z</time>
					</trkpt>
					<trkpt lat="48.862020" lon="1.994770">
						<ele>116</ele>
						<time>2026-04-14T07:33:17Z</time>
					</trkpt>
					<trkpt lat="48.862320" lon="1.993420">
						<ele>113</ele>
						<time>2026-04-14T07:33:33Z</time>
					</trkpt>
					<trkpt lat="48.862620" lon="1.991970">
						<ele>114</ele>
						<time>2026-04-14T07:33:51Z</time>
					</trkpt>
					<trkpt lat="48.863030" lon="1.990330">
						<ele>117</ele>
						<time>2026-04-14T07:34:12Z</time>
					</trkpt>
					<trkpt lat="48.863320" lon="1.989100">
						<ele>118</ele>
						<time>2026-04-14T07:34:27Z</time>
					</trkpt>
					<trkpt lat="48.863870" lon="1.986640">
						<ele>118</ele>
						<time>2026-04-14T07:34:57Z</time>
					</trkpt>
					<trkpt lat="48.864310" lon="1.984690">
						<ele>120</ele>
						<time>2026-04-14T07:35:21Z</time>
					</trkpt>
					<trkpt lat="48.864670" lon="1.983240">
						<ele>122</ele>
						<time>2026-04-14T07:35:39Z</time>
					</trkpt>
					<trkpt lat="48.864820" lon="1.982570">
						<ele>121</ele>
						<time>2026-04-14T07:35:48Z</time>
					</trkpt>
					<trkpt lat="48.864940" lon="1.981970">
						<ele>120</ele>
						<time>2026-04-14T07:35:55Z</time>
					</trkpt>
					<trkpt lat="48.864970" lon="1.981890">
						<ele>119</ele>
						<time>2026-04-14T07:35:56Z</time>
					</trkpt>
					<trkpt lat="48.865000" lon="1.981760">
						<ele>119</ele>
						<time>2026-04-14T07:35:58Z</time>
					</trkpt>
					<trkpt lat="48.865120" lon="1.980820">
						<ele>118</ele>
						<time>2026-04-14T07:36:09Z</time>
					</trkpt>
					<trkpt lat="48.865270" lon="1.979840">
						<ele>116</ele>
						<time>2026-04-14T07:36:21Z</time>
					</trkpt>
					<trkpt lat="48.865340" lon="1.979310">
						<ele>115</ele>
						<time>2026-04-14T07:36:27Z</time>
					</trkpt>
					<trkpt lat="48.865390" lon="1.978890">
						<ele>114</ele>
						<time>2026-04-14T07:36:32Z</time>
					</trkpt>
					<trkpt lat="48.865470" lon="1.978380">
						<ele>114</ele>
						<time>2026-04-14T07:36:38Z</time>
					</trkpt>
					<trkpt lat="48.865500" lon="1.978230">
						<ele>113</ele>
						<time>2026-04-14T07:36:40Z</time>
					</trkpt>
					<trkpt lat="48.865520" lon="1.978070">
						<ele>113</ele>
						<time>2026-04-14T07:36:42Z</time>
					</trkpt>
					<trkpt lat="48.865820" lon="1.976110">
						<ele>116</ele>
						<time>2026-04-14T07:37:06Z</time>
					</trkpt>
					<trkpt lat="48.865830" lon="1.976010">
						<ele>117</ele>
						<time>2026-04-14T07:37:07Z</time>
					</trkpt>
					<trkpt lat="48.865960" lon="1.975200">
						<ele>118</ele>
						<time>2026-04-14T07:37:16Z</time>
					</trkpt>
					<trkpt lat="48.866110" lon="1.974030">
						<ele>120</ele>
						<time>2026-04-14T07:37:30Z</time>
					</trkpt>
					<trkpt lat="48.866260" lon="1.973030">
						<ele>123</ele>
						<time>2026-04-14T07:37:42Z</time>
					</trkpt>
					<trkpt lat="48.866370" lon="1.972320">
						<ele>124</ele>
						<time>2026-04-14T07:37:51Z</time>
					</trkpt>
					<trkpt lat="48.866590" lon="1.972380">
						<ele>125</ele>
						<time>2026-04-14T07:37:55Z</time>
					</trkpt>
					<trkpt lat="48.866830" lon="1.970770">
						<ele>127</ele>
						<time>2026-04-14T07:38:14Z</time>
					</trkpt>
					<trkpt lat="48.866990" lon="1.970820">
						<ele>128</ele>
						<time>2026-04-14T07:38:17Z</time>
					</trkpt>
					<trkpt lat="48.867280" lon="1.970920">
						<ele>129</ele>
						<time>2026-04-14T07:38:22Z</time>
					</trkpt>
					<trkpt lat="48.867360" lon="1.970950">
						<ele>130</ele>
						<time>2026-04-14T07:38:24Z</time>
					</trkpt>
					<trkpt lat="48.867970" lon="1.971170">
						<ele>131</ele>
						<time>2026-04-14T07:38:35Z</time>
					</trkpt>
					<trkpt lat="48.868500" lon="1.971360">
						<ele>132</ele>
						<time>2026-04-14T07:38:45Z</time>
					</trkpt>
					<trkpt lat="48.869010" lon="1.971530">
						<ele>132</ele>
						<time>2026-04-14T07:38:54Z</time>
					</trkpt>
					<trkpt lat="48.869230" lon="1.971590">
						<ele>132</ele>
						<time>2026-04-14T07:38:58Z</time>
					</trkpt>
					<trkpt lat="48.869310" lon="1.971610">
						<ele>132</ele>
						<time>2026-04-14T07:39:00Z</time>
					</trkpt>
					<trkpt lat="48.869730" lon="1.971690">
						<ele>133</ele>
						<time>2026-04-14T07:39:07Z</time>
					</trkpt>
					<trkpt lat="48.870050" lon="1.971750">
						<ele>134</ele>
						<time>2026-04-14T07:39:13Z</time>
					</trkpt>
					<trkpt lat="48.870550" lon="1.971850">
						<ele>135</ele>
						<time>2026-04-14T07:39:22Z</time>
					</trkpt>
					<trkpt lat="48.870720" lon="1.971880">
						<ele>136</ele>
						<time>2026-04-14T07:39:25Z</time>
					</trkpt>
					<trkpt lat="48.871050" lon="1.971990">
						<ele>137</ele>
						<time>2026-04-14T07:39:31Z</time>
					</trkpt>
					<trkpt lat="48.871200" lon="1.972070">
						<ele>137</ele>
						<time>2026-04-14T07:39:34Z</time>
					</trkpt>
					<trkpt lat="48.871820" lon="1.972300">
						<ele>140</ele>
						<time>2026-04-14T07:39:45Z</time>
					</trkpt>
					<trkpt lat="48.872240" lon="1.972460">
						<ele>141</ele>
						<time>2026-04-14T07:39:53Z</time>
					</trkpt>
					<trkpt lat="48.872380" lon="1.972490">
						<ele>142</ele>
						<time>2026-04-14T07:39:55Z</time>
					</trkpt>
					<trkpt lat="48.872530" lon="1.972530">
						<ele>142</ele>
						<time>2026-04-14T07:39:58Z</time>
					</trkpt>
					<trkpt lat="48.872700" lon="1.972580">
						<ele>143</ele>
						<time>2026-04-14T07:40:01Z</time>
					</trkpt>
					<trkpt lat="48.872850" lon="1.972620">
						<ele>143</ele>
						<time>2026-04-14T07:40:04Z</time>
					</trkpt>
					<trkpt lat="48.872960" lon="1.972690">
						<ele>144</ele>
						<time>2026-04-14T07:40:06Z</time>
					</trkpt>
					<trkpt lat="48.873040" lon="1.972760">
						<ele>144</ele>
						<time>2026-04-14T07:40:07Z</time>
					</trkpt>
					<trkpt lat="48.873120" lon="1.972830">
						<ele>144</ele>
						<time>2026-04-14T07:40:09Z</time>
					</trkpt>
					<trkpt lat="48.873370" lon="1.973060">
						<ele>145</ele>
						<time>2026-04-14T07:40:14Z</time>
					</trkpt>
					<trkpt lat="48.874020" lon="1.973670">
						<ele>149</ele>
						<time>2026-04-14T07:40:28Z</time>
					</trkpt>
					<trkpt lat="48.874110" lon="1.973740">
						<ele>150</ele>
						<time>2026-04-14T07:40:30Z</time>
					</trkpt>
					<trkpt lat="48.874260" lon="1.973900">
						<ele>152</ele>
						<time>2026-04-14T07:40:33Z</time>
					</trkpt>
					<trkpt lat="48.874370" lon="1.974010">
						<ele>153</ele>
						<time>2026-04-14T07:40:35Z</time>
					</trkpt>
					<trkpt lat="48.874490" lon="1.974170">
						<ele>156</ele>
						<time>2026-04-14T07:40:38Z</time>
					</trkpt>
					<trkpt lat="48.874520" lon="1.974200">
						<ele>156</ele>
						<time>2026-04-14T07:40:39Z</time>
					</trkpt>
					<trkpt lat="48.874570" lon="1.974260">
						<ele>157</ele>
						<time>2026-04-14T07:40:40Z</time>
					</trkpt>
					<trkpt lat="48.874620" lon="1.974330">
						<ele>158</ele>
						<time>2026-04-14T07:40:41Z</time>
					</trkpt>
					<trkpt lat="48.874650" lon="1.974420">
						<ele>159</ele>
						<time>2026-04-14T07:40:42Z</time>
					</trkpt>
					<trkpt lat="48.874670" lon="1.974500">
						<ele>160</ele>
						<time>2026-04-14T07:40:43Z</time>
					</trkpt>
					<trkpt lat="48.874670" lon="1.974590">
						<ele>161</ele>
						<time>2026-04-14T07:40:44Z</time>
					</trkpt>
					<trkpt lat="48.874670" lon="1.974660">
						<ele>161</ele>
						<time>2026-04-14T07:40:45Z</time>
					</trkpt>
					<trkpt lat="48.874650" lon="1.974740">
						<ele>161</ele>
						<time>2026-04-14T07:40:46Z</time>
					</trkpt>
					<trkpt lat="48.874510" lon="1.975110">
						<ele>161</ele>
						<time>2026-04-14T07:40:51Z</time>
					</trkpt>
					<trkpt lat="48.874440" lon="1.975300">
						<ele>161</ele>
						<time>2026-04-14T07:40:54Z</time>
					</trkpt>
					<trkpt lat="48.874410" lon="1.975380">
						<ele>160</ele>
						<time>2026-04-14T07:40:55Z</time>
					</trkpt>
					<trkpt lat="48.874300" lon="1.975690">
						<ele>160</ele>
						<time>2026-04-14T07:40:59Z</time>
					</trkpt>
					<trkpt lat="48.874260" lon="1.975870">
						<ele>160</ele>
						<time>2026-04-14T07:41:01Z</time>
					</trkpt>
					<trkpt lat="48.874240" lon="1.976040">
						<ele>160</ele>
						<time>2026-04-14T07:41:03Z</time>
					</trkpt>
					<trkpt lat="48.874240" lon="1.976200">
						<ele>160</ele>
						<time>2026-04-14T07:41:05Z</time>
					</trkpt>
					<trkpt lat="48.874260" lon="1.976330">
						<ele>161</ele>
						<time>2026-04-14T07:41:07Z</time>
					</trkpt>
					<trkpt lat="48.874300" lon="1.976480">
						<ele>162</ele>
						<time>2026-04-14T07:41:08Z</time>
					</trkpt>
					<trkpt lat="48.874350" lon="1.976630">
						<ele>163</ele>
						<time>2026-04-14T07:41:10Z</time>
					</trkpt>
					<trkpt lat="48.874620" lon="1.977220">
						<ele>167</ele>
						<time>2026-04-14T07:41:19Z</time>
					</trkpt>
					<trkpt lat="48.874680" lon="1.977420">
						<ele>168</ele>
						<time>2026-04-14T07:41:21Z</time>
					</trkpt>
					<trkpt lat="48.874720" lon="1.977640">
						<ele>168</ele>
						<time>2026-04-14T07:41:24Z</time>
					</trkpt>
					<trkpt lat="48.874720" lon="1.978130">
						<ele>165</ele>
						<time>2026-04-14T07:41:30Z</time>
					</trkpt>
					<trkpt lat="48.874730" lon="1.978210">
						<ele>165</ele>
						<time>2026-04-14T07:41:31Z</time>
					</trkpt>
					<trkpt lat="48.874750" lon="1.978270">
						<ele>165</ele>
						<time>2026-04-14T07:41:32Z</time>
					</trkpt>
					<trkpt lat="48.874790" lon="1.978320">
						<ele>166</ele>
						<time>2026-04-14T07:41:33Z</time>
					</trkpt>
					<trkpt lat="48.874840" lon="1.978350">
						<ele>167</ele>
						<time>2026-04-14T07:41:33Z</time>
					</trkpt>
					<trkpt lat="48.874900" lon="1.978370">
						<ele>168</ele>
						<time>2026-04-14T07:41:35Z</time>
					</trkpt>
					<trkpt lat="48.874930" lon="1.978360">
						<ele>168</ele>
						<time>2026-04-14T07:41:35Z</time>
					</trkpt>
					<trkpt lat="48.875010" lon="1.978320">
						<ele>170</ele>
						<time>2026-04-14T07:41:37Z</time>
					</trkpt>
					<trkpt lat="48.875290" lon="1.978070">
						<ele>173</ele>
						<time>2026-04-14T07:41:42Z</time>
					</trkpt>
					<trkpt lat="48.875400" lon="1.978010">
						<ele>174</ele>
						<time>2026-04-14T07:41:44Z</time>
					</trkpt>
					<trkpt lat="48.875550" lon="1.977960">
						<ele>175</ele>
						<time>2026-04-14T07:41:47Z</time>
					</trkpt>
					<trkpt lat="48.875950" lon="1.977920">
						<ele>177</ele>
						<time>2026-04-14T07:41:54Z</time>
					</trkpt>
					<trkpt lat="48.876260" lon="1.977860">
						<ele>179</ele>
						<time>2026-04-14T07:42:00Z</time>
					</trkpt>
					<trkpt lat="48.876300" lon="1.977850">
						<ele>179</ele>
						<time>2026-04-14T07:42:01Z</time>
					</trkpt>
					<trkpt lat="48.876420" lon="1.977890">
						<ele>179</ele>
						<time>2026-04-14T07:42:03Z</time>
					</trkpt>
					<trkpt lat="48.876440" lon="1.977920">
						<ele>179</ele>
						<time>2026-04-14T07:42:03Z</time>
					</trkpt>
					<trkpt lat="48.876620" lon="1.978150">
						<ele>178</ele>
						<time>2026-04-14T07:42:07Z</time>
					</trkpt>
					<trkpt lat="48.877130" lon="1.978910">
						<ele>177</ele>
						<time>2026-04-14T07:42:20Z</time>
					</trkpt>
					<trkpt lat="48.877220" lon="1.979060">
						<ele>176</ele>
						<time>2026-04-14T07:42:23Z</time>
					</trkpt>
					<trkpt lat="48.877380" lon="1.979280">
						<ele>177</ele>
						<time>2026-04-14T07:42:26Z</time>
					</trkpt>
					<trkpt lat="48.877450" lon="1.979370">
						<ele>177</ele>
						<time>2026-04-14T07:42:28Z</time>
					</trkpt>
					<trkpt lat="48.877620" lon="1.979520">
						<ele>178</ele>
						<time>2026-04-14T07:42:32Z</time>
					</trkpt>
					<trkpt lat="48.877740" lon="1.979610">
						<ele>178</ele>
						<time>2026-04-14T07:42:34Z</time>
					</trkpt>
					<trkpt lat="48.877990" lon="1.979750">
						<ele>179</ele>
						<time>2026-04-14T07:42:39Z</time>
					</trkpt>
					<trkpt lat="48.879270" lon="1.980260">
						<ele>180</ele>
						<time>2026-04-14T07:43:02Z</time>
					</trkpt>
					<trkpt lat="48.879330" lon="1.980280">
						<ele>180</ele>
						<time>2026-04-14T07:43:03Z</time>
					</trkpt>
					<trkpt lat="48.880360" lon="1.980710">
						<ele>177</ele>
						<time>2026-04-14T07:43:22Z</time>
					</trkpt>
					<trkpt lat="48.880640" lon="1.980820">
						<ele>176</ele>
						<time>2026-04-14T07:43:27Z</time>
					</trkpt>
					<trkpt lat="48.881200" lon="1.981090">
						<ele>178</ele>
						<time>2026-04-14T07:43:38Z</time>
					</trkpt>
					<trkpt lat="48.882030" lon="1.981570">
						<ele>178</ele>
						<time>2026-04-14T07:43:54Z</time>
					</trkpt>
					<trkpt lat="48.882110" lon="1.981620">
						<ele>179</ele>
						<time>2026-04-14T07:43:55Z</time>
					</trkpt>
					<trkpt lat="48.882610" lon="1.981900">
						<ele>178</ele>
						<time>2026-04-14T07:44:05Z</time>
					</trkpt>
					<trkpt lat="48.882790" lon="1.982000">
						<ele>179</ele>
						<time>2026-04-14T07:44:08Z</time>
					</trkpt>
					<trkpt lat="48.883630" lon="1.982530">
						<ele>178</ele>
						<time>2026-04-14T07:44:24Z</time>
					</trkpt>
					<trkpt lat="48.883730" lon="1.982590">
						<ele>177</ele>
						<time>2026-04-14T07:44:26Z</time>
					</trkpt>
					<trkpt lat="48.883790" lon="1.982640">
						<ele>177</ele>
						<time>2026-04-14T07:44:27Z</time>
					</trkpt>
					<trkpt lat="48.883880" lon="1.982720">
						<ele>176</ele>
						<time>2026-04-14T07:44:29Z</time>
					</trkpt>
					<trkpt lat="48.883950" lon="1.982750">
						<ele>176</ele>
						<time>2026-04-14T07:44:31Z</time>
					</trkpt>
					<trkpt lat="48.884000" lon="1.982760">
						<ele>176</ele>
						<time>2026-04-14T07:44:31Z</time>
					</trkpt>
					<trkpt lat="48.884060" lon="1.982730">
						<ele>175</ele>
						<time>2026-04-14T07:44:33Z</time>
					</trkpt>
					<trkpt lat="48.884130" lon="1.982730">
						<ele>175</ele>
						<time>2026-04-14T07:44:34Z</time>
					</trkpt>
					<trkpt lat="48.884180" lon="1.982740">
						<ele>175</ele>
						<time>2026-04-14T07:44:35Z</time>
					</trkpt>
					<trkpt lat="48.884210" lon="1.982740">
						<ele>175</ele>
						<time>2026-04-14T07:44:35Z</time>
					</trkpt>
					<trkpt lat="48.884260" lon="1.982710">
						<ele>175</ele>
						<time>2026-04-14T07:44:36Z</time>
					</trkpt>
					<trkpt lat="48.884290" lon="1.982660">
						<ele>175</ele>
						<time>2026-04-14T07:44:37Z</time>
					</trkpt>
					<trkpt lat="48.884320" lon="1.982610">
						<ele>174</ele>
						<time>2026-04-14T07:44:38Z</time>
					</trkpt>
					<trkpt lat="48.884330" lon="1.982540">
						<ele>174</ele>
						<time>2026-04-14T07:44:39Z</time>
					</trkpt>
					<trkpt lat="48.884330" lon="1.982520">
						<ele>174</ele>
						<time>2026-04-14T07:44:39Z</time>
					</trkpt>
					<trkpt lat="48.884360" lon="1.982420">
						<ele>174</ele>
						<time>2026-04-14T07:44:40Z</time>
					</trkpt>
					<trkpt lat="48.884390" lon="1.982370">
						<ele>174</ele>
						<time>2026-04-14T07:44:41Z</time>
					</trkpt>
					<trkpt lat="48.884460" lon="1.982290">
						<ele>174</ele>
						<time>2026-04-14T07:44:43Z</time>
					</trkpt>
					<trkpt lat="48.884540" lon="1.982250">
						<ele>174</ele>
						<time>2026-04-14T07:44:44Z</time>
					</trkpt>
					<trkpt lat="48.884610" lon="1.982260">
						<ele>174</ele>
						<time>2026-04-14T07:44:45Z</time>
					</trkpt>
					<trkpt lat="48.884650" lon="1.982280">
						<ele>173</ele>
						<time>2026-04-14T07:44:46Z</time>
					</trkpt>
					<trkpt lat="48.884680" lon="1.982310">
						<ele>173</ele>
						<time>2026-04-14T07:44:47Z</time>
					</trkpt>
					<trkpt lat="48.884740" lon="1.982400">
						<ele>173</ele>
						<time>2026-04-14T07:44:48Z</time>
					</trkpt>
					<trkpt lat="48.884900" lon="1.982800">
						<ele>173</ele>
						<time>2026-04-14T07:44:54Z</time>
					</trkpt>
					<trkpt lat="48.885030" lon="1.983120">
						<ele>173</ele>
						<time>2026-04-14T07:44:58Z</time>
					</trkpt>
					<trkpt lat="48.885090" lon="1.983220">
						<ele>173</ele>
						<time>2026-04-14T07:45:00Z</time>
					</trkpt>
					<trkpt lat="48.885150" lon="1.983290">
						<ele>173</ele>
						<time>2026-04-14T07:45:01Z</time>
					</trkpt>
					<trkpt lat="48.885220" lon="1.983340">
						<ele>172</ele>
						<time>2026-04-14T07:45:02Z</time>
					</trkpt>
					<trkpt lat="48.885290" lon="1.983380">
						<ele>172</ele>
						<time>2026-04-14T07:45:04Z</time>
					</trkpt>
					<trkpt lat="48.885370" lon="1.983390">
						<ele>172</ele>
						<time>2026-04-14T07:45:05Z</time>
					</trkpt>
					<trkpt lat="48.885450" lon="1.983390">
						<ele>172</ele>
						<time>2026-04-14T07:45:07Z</time>
					</trkpt>
					<trkpt lat="48.885570" lon="1.983330">
						<ele>172</ele>
						<time>2026-04-14T07:45:09Z</time>
					</trkpt>
					<trkpt lat="48.885690" lon="1.983210">
						<ele>171</ele>
						<time>2026-04-14T07:45:11Z</time>
					</trkpt>
					<trkpt lat="48.885750" lon="1.983120">
						<ele>171</ele>
						<time>2026-04-14T07:45:13Z</time>
					</trkpt>
					<trkpt lat="48.885790" lon="1.983020">
						<ele>171</ele>
						<time>2026-04-14T07:45:14Z</time>
					</trkpt>
					<trkpt lat="48.889000" lon="1.973430">
						<ele>171</ele>
						<time>2026-04-14T07:47:20Z</time>
					</trkpt>
					<trkpt lat="48.890260" lon="1.969650">
						<ele>173</ele>
						<time>2026-04-14T07:48:10Z</time>
					</trkpt>
					<trkpt lat="48.890920" lon="1.967680">
						<ele>174</ele>
						<time>2026-04-14T07:48:36Z</time>
					</trkpt>
					<trkpt lat="48.891120" lon="1.967080">
						<ele>174</ele>
						<time>2026-04-14T07:48:43Z</time>
					</trkpt>
					<trkpt lat="48.891910" lon="1.964690">
						<ele>175</ele>
						<time>2026-04-14T07:49:15Z</time>
					</trkpt>
					<trkpt lat="48.892810" lon="1.961980">
						<ele>175</ele>
						<time>2026-04-14T07:49:50Z</time>
					</trkpt>
					<trkpt lat="48.892830" lon="1.961950">
						<ele>175</ele>
						<time>2026-04-14T07:49:51Z</time>
					</trkpt>
					<trkpt lat="48.892880" lon="1.961920">
						<ele>175</ele>
						<time>2026-04-14T07:49:52Z</time>
					</trkpt>
					<trkpt lat="48.892880" lon="1.961880">
						<ele>175</ele>
						<time>2026-04-14T07:49:52Z</time>
					</trkpt>
					<trkpt lat="48.892910" lon="1.961710">
						<ele>175</ele>
						<time>2026-04-14T07:49:54Z</time>
					</trkpt>
					<trkpt lat="48.892940" lon="1.961600">
						<ele>175</ele>
						<time>2026-04-14T07:49:56Z</time>
					</trkpt>
					<trkpt lat="48.893970" lon="1.958500">
						<ele>177</ele>
						<time>2026-04-14T07:50:36Z</time>
					</trkpt>
					<trkpt lat="48.894470" lon="1.956970">
						<ele>178</ele>
						<time>2026-04-14T07:50:56Z</time>
					</trkpt>
					<trkpt lat="48.895370" lon="1.954320">
						<ele>178</ele>
						<time>2026-04-14T07:51:31Z</time>
					</trkpt>
					<trkpt lat="48.895550" lon="1.953890">
						<ele>178</ele>
						<time>2026-04-14T07:51:37Z</time>
					</trkpt>
					<trkpt lat="48.896280" lon="1.952550">
						<ele>179</ele>
						<time>2026-04-14T07:51:57Z</time>
					</trkpt>
					<trkpt lat="48.896710" lon="1.951780">
						<ele>179</ele>
						<time>2026-04-14T07:52:09Z</time>
					</trkpt>
					<trkpt lat="48.897080" lon="1.951100">
						<ele>179</ele>
						<time>2026-04-14T07:52:20Z</time>
					</trkpt>
					<trkpt lat="48.897730" lon="1.949900">
						<ele>178</ele>
						<time>2026-04-14T07:52:38Z</time>
					</trkpt>
					<trkpt lat="48.898390" lon="1.948690">
						<ele>177</ele>
						<time>2026-04-14T07:52:56Z</time>
					</trkpt>
					<trkpt lat="48.899250" lon="1.947110">
						<ele>177</ele>
						<time>2026-04-14T07:53:20Z</time>
					</trkpt>
					<trkpt lat="48.899980" lon="1.945780">
						<ele>177</ele>
						<time>2026-04-14T07:53:40Z</time>
					</trkpt>
					<trkpt lat="48.900510" lon="1.944830">
						<ele>178</ele>
						<time>2026-04-14T07:53:55Z</time>
					</trkpt>
					<trkpt lat="48.901110" lon="1.943730">
						<ele>177</ele>
						<time>2026-04-14T07:54:12Z</time>
					</trkpt>
					<trkpt lat="48.902080" lon="1.942000">
						<ele>177</ele>
						<time>2026-04-14T07:54:38Z</time>
					</trkpt>
					<trkpt lat="48.902260" lon="1.941580">
						<ele>176</ele>
						<time>2026-04-14T07:54:44Z</time>
					</trkpt>
					<trkpt lat="48.902880" lon="1.939430">
						<ele>173</ele>
						<time>2026-04-14T07:55:12Z</time>
					</trkpt>
					<trkpt lat="48.903380" lon="1.937710">
						<ele>173</ele>
						<time>2026-04-14T07:55:34Z</time>
					</trkpt>
					<trkpt lat="48.903760" lon="1.936310">
						<ele>172</ele>
						<time>2026-04-14T07:55:51Z</time>
					</trkpt>
					<trkpt lat="48.904170" lon="1.934950">
						<ele>172</ele>
						<time>2026-04-14T07:56:09Z</time>
					</trkpt>
					<trkpt lat="48.904240" lon="1.934740">
						<ele>172</ele>
						<time>2026-04-14T07:56:12Z</time>
					</trkpt>
					<trkpt lat="48.904310" lon="1.934570">
						<ele>173</ele>
						<time>2026-04-14T07:56:14Z</time>
					</trkpt>
					<trkpt lat="48.904400" lon="1.934410">
						<ele>173</ele>
						<time>2026-04-14T07:56:16Z</time>
					</trkpt>
					<trkpt lat="48.904570" lon="1.934180">
						<ele>173</ele>
						<time>2026-04-14T07:56:20Z</time>
					</trkpt>
					<trkpt lat="48.908800" lon="1.929480">
						<ele>178</ele>
						<time>2026-04-14T07:57:54Z</time>
					</trkpt>
					<trkpt lat="48.908830" lon="1.929440">
						<ele>178</ele>
						<time>2026-04-14T07:57:54Z</time>
					</trkpt>
					<trkpt lat="48.909090" lon="1.929150">
						<ele>177</ele>
						<time>2026-04-14T07:58:00Z</time>
					</trkpt>
					<trkpt lat="48.909110" lon="1.929130">
						<ele>177</ele>
						<time>2026-04-14T07:58:01Z</time>
					</trkpt>
					<trkpt lat="48.909420" lon="1.928780">
						<ele>177</ele>
						<time>2026-04-14T07:58:07Z</time>
					</trkpt>
					<trkpt lat="48.909660" lon="1.928510">
						<ele>177</ele>
						<time>2026-04-14T07:58:13Z</time>
					</trkpt>
					<trkpt lat="48.910410" lon="1.927670">
						<ele>177</ele>
						<time>2026-04-14T07:58:29Z</time>
					</trkpt>
					<trkpt lat="48.910790" lon="1.927250">
						<ele>178</ele>
						<time>2026-04-14T07:58:38Z</time>
					</trkpt>
					<trkpt lat="48.911230" lon="1.926760">
						<ele>179</ele>
						<time>2026-04-14T07:58:47Z</time>
					</trkpt>
					<trkpt lat="48.911750" lon="1.926180">
						<ele>179</ele>
						<time>2026-04-14T07:58:59Z</time>
					</trkpt>
					<trkpt lat="48.911860" lon="1.926060">
						<ele>179</ele>
						<time>2026-04-14T07:59:01Z</time>
					</trkpt>
					<trkpt lat="48.912340" lon="1.925510">
						<ele>179</ele>
						<time>2026-04-14T07:59:12Z</time>
					</trkpt>
					<trkpt lat="48.912940" lon="1.924850">
						<ele>180</ele>
						<time>2026-04-14T07:59:25Z</time>
					</trkpt>
					<trkpt lat="48.913380" lon="1.924400">
						<ele>181</ele>
						<time>2026-04-14T07:59:35Z</time>
					</trkpt>
					<trkpt lat="48.913450" lon="1.924320">
						<ele>181</ele>
						<time>2026-04-14T07:59:36Z</time>
					</trkpt>
					<trkpt lat="48.913280" lon="1.923050">
						<ele>182</ele>
						<time>2026-04-14T07:59:51Z</time>
					</trkpt>
					<trkpt lat="48.913270" lon="1.922750">
						<ele>181</ele>
						<time>2026-04-14T07:59:55Z</time>
					</trkpt>
					<trkpt lat="48.913250" lon="1.922640">
						<ele>181</ele>
						<time>2026-04-14T07:59:56Z</time>
					</trkpt>
					<trkpt lat="48.913210" lon="1.922470">
						<ele>181</ele>
						<time>2026-04-14T07:59:58Z</time>
					</trkpt>
					<trkpt lat="48.913150" lon="1.921970">
						<ele>182</ele>
						<time>2026-04-14T08:00:04Z</time>
					</trkpt>
					<trkpt lat="48.913160" lon="1.921780">
						<ele>183</ele>
						<time>2026-04-14T08:00:06Z</time>
					</trkpt>
					<trkpt lat="48.913490" lon="1.920650">
						<ele>183</ele>
						<time>2026-04-14T08:00:21Z</time>
					</trkpt>
					<trkpt lat="48.913740" lon="1.919580">
						<ele>184</ele>
						<time>2026-04-14T08:00:34Z</time>
					</trkpt>
					<trkpt lat="48.913770" lon="1.919480">
						<ele>184</ele>
						<time>2026-04-14T08:00:35Z</time>
					</trkpt>
					<trkpt lat="48.914070" lon="1.918760">
						<ele>184</ele>
						<time>2026-04-14T08:00:45Z</time>
					</trkpt>
					<trkpt lat="48.914090" lon="1.918650">
						<ele>183</ele>
						<time>2026-04-14T08:00:47Z</time>
					</trkpt>
					<trkpt lat="48.914080" lon="1.918590">
						<ele>183</ele>
						<time>2026-04-14T08:00:47Z</time>
					</trkpt>
					<trkpt lat="48.914060" lon="1.918550">
						<ele>183</ele>
						<time>2026-04-14T08:00:48Z</time>
					</trkpt>
					<trkpt lat="48.913900" lon="1.918250">
						<ele>183</ele>
						<time>2026-04-14T08:00:53Z</time>
					</trkpt>
					<trkpt lat="48.913890" lon="1.918230">
						<ele>183</ele>
						<time>2026-04-14T08:00:53Z</time>
					</trkpt>
					<trkpt lat="48.913500" lon="1.917740">
						<ele>184</ele>
						<time>2026-04-14T08:01:02Z</time>
					</trkpt>
					<trkpt lat="48.913230" lon="1.917390">
						<ele>184</ele>
						<time>2026-04-14T08:01:08Z</time>
					</trkpt>
					<trkpt lat="48.913600" lon="1.916780">
						<ele>183</ele>
						<time>2026-04-14T08:01:18Z</time>
					</trkpt>
					<trkpt lat="48.913680" lon="1.916610">
						<ele>183</ele>
						<time>2026-04-14T08:01:20Z</time>
					</trkpt>
					<trkpt lat="48.913740" lon="1.916400">
						<ele>183</ele>
						<time>2026-04-14T08:01:23Z</time>
					</trkpt>
					<trkpt lat="48.913780" lon="1.916160">
						<ele>184</ele>
						<time>2026-04-14T08:01:26Z</time>
					</trkpt>
					<trkpt lat="48.913810" lon="1.915970">
						<ele>184</ele>
						<time>2026-04-14T08:01:28Z</time>
					</trkpt>
					<trkpt lat="48.913810" lon="1.915690">
						<ele>185</ele>
						<time>2026-04-14T08:01:31Z</time>
					</trkpt>
					<trkpt lat="48.913800" lon="1.915560">
						<ele>185</ele>
						<time>2026-04-14T08:01:33Z</time>
					</trkpt>
					<trkpt lat="48.913780" lon="1.914600">
						<ele>184</ele>
						<time>2026-04-14T08:01:44Z</time>
					</trkpt>
					<trkpt lat="48.913710" lon="1.911860">
						<ele>183</ele>
						<time>2026-04-14T08:02:16Z</time>
					</trkpt>
					<trkpt lat="48.913760" lon="1.910950">
						<ele>183</ele>
						<time>2026-04-14T08:02:27Z</time>
					</trkpt>
					<trkpt lat="48.913820" lon="1.910940">
						<ele>182</ele>
						<time>2026-04-14T08:02:28Z</time>
					</trkpt>
					<trkpt lat="48.913860" lon="1.910900">
						<ele>182</ele>
						<time>2026-04-14T08:02:29Z</time>
					</trkpt>
					<trkpt lat="48.913890" lon="1.910810">
						<ele>182</ele>
						<time>2026-04-14T08:02:30Z</time>
					</trkpt>
					<trkpt lat="48.913890" lon="1.910730">
						<ele>182</ele>
						<time>2026-04-14T08:02:31Z</time>
					</trkpt>
					<trkpt lat="48.913870" lon="1.910660">
						<ele>182</ele>
						<time>2026-04-14T08:02:32Z</time>
					</trkpt>
					<trkpt lat="48.913820" lon="1.910610">
						<ele>182</ele>
						<time>2026-04-14T08:02:33Z</time>
					</trkpt>
					<trkpt lat="48.913760" lon="1.910600">
						<ele>182</ele>
						<time>2026-04-14T08:02:34Z</time>
					</trkpt>
					<trkpt lat="48.913690" lon="1.909810">
						<ele>182</ele>
						<time>2026-04-14T08:02:43Z</time>
					</trkpt>
					<trkpt lat="48.913650" lon="1.909380">
						<ele>182</ele>
						<time>2026-04-14T08:02:48Z</time>
					</trkpt>
					<trkpt lat="48.913640" lon="1.908740">
						<ele>182</ele>
						<time>2026-04-14T08:02:56Z</time>
					</trkpt>
					<trkpt lat="48.913690" lon="1.908140">
						<ele>182</ele>
						<time>2026-04-14T08:03:03Z</time>
					</trkpt>
					<trkpt lat="48.914550" lon="1.903930">
						<ele>181</ele>
						<time>2026-04-14T08:03:54Z</time>
					</trkpt>
					<trkpt lat="48.914820" lon="1.902640">
						<ele>180</ele>
						<time>2026-04-14T08:04:10Z</time>
					</trkpt>
					<trkpt lat="48.915250" lon="1.900590">
						<ele>178</ele>
						<time>2026-04-14T08:04:35Z</time>
					</trkpt>
					<trkpt lat="48.915740" lon="1.898310">
						<ele>177</ele>
						<time>2026-04-14T08:05:04Z</time>
					</trkpt>
					<trkpt lat="48.915830" lon="1.897860">
						<ele>178</ele>
						<time>2026-04-14T08:05:09Z</time>
					</trkpt>
					<trkpt lat="48.915860" lon="1.897510">
						<ele>179</ele>
						<time>2026-04-14T08:05:13Z</time>
					</trkpt>
					<trkpt lat="48.915870" lon="1.897370">
						<ele>179</ele>
						<time>2026-04-14T08:05:15Z</time>
					</trkpt>
					<trkpt lat="48.915870" lon="1.897130">
						<ele>178</ele>
						<time>2026-04-14T08:05:18Z</time>
					</trkpt>
					<trkpt lat="48.915840" lon="1.896770">
						<ele>177</ele>
						<time>2026-04-14T08:05:22Z</time>
					</trkpt>
					<trkpt lat="48.914940" lon="1.890640">
						<ele>177</ele>
						<time>2026-04-14T08:06:35Z</time>
					</trkpt>
					<trkpt lat="48.914900" lon="1.890180">
						<ele>178</ele>
						<time>2026-04-14T08:06:41Z</time>
					</trkpt>
					<trkpt lat="48.914760" lon="1.887280">
						<ele>180</ele>
						<time>2026-04-14T08:07:15Z</time>
					</trkpt>
					<trkpt lat="48.914650" lon="1.884550">
						<ele>181</ele>
						<time>2026-04-14T08:07:47Z</time>
					</trkpt>
					<trkpt lat="48.914570" lon="1.882400">
						<ele>182</ele>
						<time>2026-04-14T08:08:12Z</time>
					</trkpt>
					<trkpt lat="48.914570" lon="1.882130">
						<ele>182</ele>
						<time>2026-04-14T08:08:15Z</time>
					</trkpt>
					<trkpt lat="48.914620" lon="1.881750">
						<ele>183</ele>
						<time>2026-04-14T08:08:20Z</time>
					</trkpt>
					<trkpt lat="48.914680" lon="1.881540">
						<ele>183</ele>
						<time>2026-04-14T08:08:22Z</time>
					</trkpt>
					<trkpt lat="48.914730" lon="1.881410">
						<ele>183</ele>
						<time>2026-04-14T08:08:24Z</time>
					</trkpt>
					<trkpt lat="48.914850" lon="1.881140">
						<ele>184</ele>
						<time>2026-04-14T08:08:28Z</time>
					</trkpt>
					<trkpt lat="48.915010" lon="1.880940">
						<ele>185</ele>
						<time>2026-04-14T08:08:32Z</time>
					</trkpt>
					<trkpt lat="48.915210" lon="1.880750">
						<ele>185</ele>
						<time>2026-04-14T08:08:36Z</time>
					</trkpt>
					<trkpt lat="48.915450" lon="1.880600">
						<ele>185</ele>
						<time>2026-04-14T08:08:40Z</time>
					</trkpt>
					<trkpt lat="48.917560" lon="1.879200">
						<ele>183</ele>
						<time>2026-04-14T08:09:21Z</time>
					</trkpt>
					<trkpt lat="48.919150" lon="1.878130">
						<ele>175</ele>
						<time>2026-04-14T08:09:52Z</time>
					</trkpt>
					<trkpt lat="48.919400" lon="1.877900">
						<ele>174</ele>
						<time>2026-04-14T08:09:57Z</time>
					</trkpt>
					<trkpt lat="48.919840" lon="1.877320">
						<ele>172</ele>
						<time>2026-04-14T08:10:08Z</time>
					</trkpt>
					<trkpt lat="48.920530" lon="1.876370">
						<ele>168</ele>
						<time>2026-04-14T08:10:24Z</time>
					</trkpt>
					<trkpt lat="48.921040" lon="1.875690">
						<ele>164</ele>
						<time>2026-04-14T08:10:36Z</time>
					</trkpt>
					<trkpt lat="48.921370" lon="1.875240">
						<ele>161</ele>
						<time>2026-04-14T08:10:44Z</time>
					</trkpt>
					<trkpt lat="48.921760" lon="1.874730">
						<ele>159</ele>
						<time>2026-04-14T08:10:53Z</time>
					</trkpt>
					<trkpt lat="48.921900" lon="1.874500">
						<ele>158</ele>
						<time>2026-04-14T08:10:57Z</time>
					</trkpt>
					<trkpt lat="48.921940" lon="1.874420">
						<ele>158</ele>
						<time>2026-04-14T08:10:58Z</time>
					</trkpt>
					<trkpt lat="48.922230" lon="1.873900">
						<ele>156</ele>
						<time>2026-04-14T08:11:06Z</time>
					</trkpt>
					<trkpt lat="48.922540" lon="1.873530">
						<ele>155</ele>
						<time>2026-04-14T08:11:13Z</time>
					</trkpt>
					<trkpt lat="48.922660" lon="1.873350">
						<ele>154</ele>
						<time>2026-04-14T08:11:16Z</time>
					</trkpt>
					<trkpt lat="48.922700" lon="1.873290">
						<ele>154</ele>
						<time>2026-04-14T08:11:17Z</time>
					</trkpt>
					<trkpt lat="48.922800" lon="1.873020">
						<ele>153</ele>
						<time>2026-04-14T08:11:21Z</time>
					</trkpt>
					<trkpt lat="48.922840" lon="1.872750">
						<ele>152</ele>
						<time>2026-04-14T08:11:24Z</time>
					</trkpt>
					<trkpt lat="48.922840" lon="1.872540">
						<ele>152</ele>
						<time>2026-04-14T08:11:27Z</time>
					</trkpt>
					<trkpt lat="48.922790" lon="1.872350">
						<ele>151</ele>
						<time>2026-04-14T08:11:29Z</time>
					</trkpt>
					<trkpt lat="48.922680" lon="1.872090">
						<ele>150</ele>
						<time>2026-04-14T08:11:33Z</time>
					</trkpt>
					<trkpt lat="48.922520" lon="1.871960">
						<ele>149</ele>
						<time>2026-04-14T08:11:36Z</time>
					</trkpt>
					<trkpt lat="48.922380" lon="1.871900">
						<ele>148</ele>
						<time>2026-04-14T08:11:38Z</time>
					</trkpt>
					<trkpt lat="48.922240" lon="1.871900">
						<ele>147</ele>
						<time>2026-04-14T08:11:41Z</time>
					</trkpt>
					<trkpt lat="48.921540" lon="1.872200">
						<ele>144</ele>
						<time>2026-04-14T08:11:54Z</time>
					</trkpt>
					<trkpt lat="48.921430" lon="1.872160">
						<ele>144</ele>
						<time>2026-04-14T08:11:56Z</time>
					</trkpt>
					<trkpt lat="48.921410" lon="1.872130">
						<ele>143</ele>
						<time>2026-04-14T08:11:56Z</time>
					</trkpt>
					<trkpt lat="48.921370" lon="1.872110">
						<ele>143</ele>
						<time>2026-04-14T08:11:57Z</time>
					</trkpt>
					<trkpt lat="48.921260" lon="1.871980">
						<ele>142</ele>
						<time>2026-04-14T08:12:00Z</time>
					</trkpt>
					<trkpt lat="48.921220" lon="1.871930">
						<ele>141</ele>
						<time>2026-04-14T08:12:00Z</time>
					</trkpt>
					<trkpt lat="48.918870" lon="1.867620">
						<ele>112</ele>
						<time>2026-04-14T08:13:06Z</time>
					</trkpt>
					<trkpt lat="48.918180" lon="1.866340">
						<ele>108</ele>
						<time>2026-04-14T08:13:25Z</time>
					</trkpt>
					<trkpt lat="48.917080" lon="1.864300">
						<ele>99</ele>
						<time>2026-04-14T08:13:56Z</time>
					</trkpt>
					<trkpt lat="48.916870" lon="1.863960">
						<ele>96</ele>
						<time>2026-04-14T08:14:02Z</time>
					</trkpt>
					<trkpt lat="48.916620" lon="1.863600">
						<ele>94</ele>
						<time>2026-04-14T08:14:08Z</time>
					</trkpt>
					<trkpt lat="48.915760" lon="1.862650">
						<ele>86</ele>
						<time>2026-04-14T08:14:27Z</time>
					</trkpt>
					<trkpt lat="48.915550" lon="1.862350">
						<ele>85</ele>
						<time>2026-04-14T08:14:32Z</time>
					</trkpt>
					<trkpt lat="48.915390" lon="1.862080">
						<ele>83</ele>
						<time>2026-04-14T08:14:36Z</time>
					</trkpt>
					<trkpt lat="48.915270" lon="1.861840">
						<ele>82</ele>
						<time>2026-04-14T08:14:40Z</time>
					</trkpt>
					<trkpt lat="48.914940" lon="1.861030">
						<ele>79</ele>
						<time>2026-04-14T08:14:51Z</time>
					</trkpt>
					<trkpt lat="48.914800" lon="1.860750">
						<ele>77</ele>
						<time>2026-04-14T08:14:55Z</time>
					</trkpt>
					<trkpt lat="48.913960" lon="1.859500">
						<ele>71</ele>
						<time>2026-04-14T08:15:16Z</time>
					</trkpt>
					<trkpt lat="48.913440" lon="1.858720">
						<ele>68</ele>
						<time>2026-04-14T08:15:29Z</time>
					</trkpt>
					<trkpt lat="48.913290" lon="1.858520">
						<ele>67</ele>
						<time>2026-04-14T08:15:32Z</time>
					</trkpt>
					<trkpt lat="48.913160" lon="1.858410">
						<ele>66</ele>
						<time>2026-04-14T08:15:35Z</time>
					</trkpt>
					<trkpt lat="48.912920" lon="1.858270">
						<ele>64</ele>
						<time>2026-04-14T08:15:39Z</time>
					</trkpt>
					<trkpt lat="48.911810" lon="1.857710">
						<ele>55</ele>
						<time>2026-04-14T08:16:00Z</time>
					</trkpt>
					<trkpt lat="48.911500" lon="1.857490">
						<ele>52</ele>
						<time>2026-04-14T08:16:06Z</time>
					</trkpt>
					<trkpt lat="48.911360" lon="1.857330">
						<ele>51</ele>
						<time>2026-04-14T08:16:09Z</time>
					</trkpt>
					<trkpt lat="48.911230" lon="1.857160">
						<ele>50</ele>
						<time>2026-04-14T08:16:13Z</time>
					</trkpt>
					<trkpt lat="48.911150" lon="1.857020">
						<ele>49</ele>
						<time>2026-04-14T08:16:15Z</time>
					</trkpt>
					<trkpt lat="48.911070" lon="1.856860">
						<ele>48</ele>
						<time>2026-04-14T08:16:17Z</time>
					</trkpt>
					<trkpt lat="48.911030" lon="1.856740">
						<ele>47</ele>
						<time>2026-04-14T08:16:19Z</time>
					</trkpt>
					<trkpt lat="48.911000" lon="1.856600">
						<ele>47</ele>
						<time>2026-04-14T08:16:20Z</time>
					</trkpt>
					<trkpt lat="48.910980" lon="1.856390">
						<ele>46</ele>
						<time>2026-04-14T08:16:23Z</time>
					</trkpt>
					<trkpt lat="48.910970" lon="1.856240">
						<ele>45</ele>
						<time>2026-04-14T08:16:25Z</time>
					</trkpt>
					<trkpt lat="48.911000" lon="1.856000">
						<ele>45</ele>
						<time>2026-04-14T08:16:27Z</time>
					</trkpt>
					<trkpt lat="48.911050" lon="1.855820">
						<ele>44</ele>
						<time>2026-04-14T08:16:30Z</time>
					</trkpt>
					<trkpt lat="48.911190" lon="1.855380">
						<ele>43</ele>
						<time>2026-04-14T08:16:35Z</time>
					</trkpt>
					<trkpt lat="48.911240" lon="1.855250">
						<ele>43</ele>
						<time>2026-04-14T08:16:37Z</time>
					</trkpt>
					<trkpt lat="48.911310" lon="1.855100">
						<ele>42</ele>
						<time>2026-04-14T08:16:39Z</time>
					</trkpt>
					<trkpt lat="48.911410" lon="1.854980">
						<ele>42</ele>
						<time>2026-04-14T08:16:42Z</time>
					</trkpt>
					<trkpt lat="48.911870" lon="1.854640">
						<ele>44</ele>
						<time>2026-04-14T08:16:51Z</time>
					</trkpt>
					<trkpt lat="48.912010" lon="1.854490">
						<ele>44</ele>
						<time>2026-04-14T08:16:54Z</time>
					</trkpt>
					<trkpt lat="48.912030" lon="1.854440">
						<ele>44</ele>
						<time>2026-04-14T08:16:54Z</time>
					</trkpt>
					<trkpt lat="48.912040" lon="1.854390">
						<ele>43</ele>
						<time>2026-04-14T08:16:55Z</time>
					</trkpt>
					<trkpt lat="48.912030" lon="1.854290">
						<ele>43</ele>
						<time>2026-04-14T08:16:56Z</time>
					</trkpt>
					<trkpt lat="48.911780" lon="1.853460">
						<ele>36</ele>
						<time>2026-04-14T08:17:07Z</time>
					</trkpt>
					<trkpt lat="48.911140" lon="1.853820">
						<ele>36</ele>
						<time>2026-04-14T08:17:19Z</time>
					</trkpt>
					<trkpt lat="48.910860" lon="1.853980">
						<ele>36</ele>
						<time>2026-04-14T08:17:24Z</time>
					</trkpt>
					<trkpt lat="48.910740" lon="1.854100">
						<ele>37</ele>
						<time>2026-04-14T08:17:27Z</time>
					</trkpt>
					<trkpt lat="48.910680" lon="1.853930">
						<ele>36</ele>
						<time>2026-04-14T08:17:29Z</time>
					</trkpt>
					<trkpt lat="48.910520" lon="1.853700">
						<ele>35</ele>
						<time>2026-04-14T08:17:33Z</time>
					</trkpt>
					<trkpt lat="48.910240" lon="1.853370">
						<ele>34</ele>
						<time>2026-04-14T08:17:39Z</time>
					</trkpt>
					<trkpt lat="48.910140" lon="1.853250">
						<ele>34</ele>
						<time>2026-04-14T08:17:42Z</time>
					</trkpt>
					<trkpt lat="48.910050" lon="1.853150">
						<ele>34</ele>
						<time>2026-04-14T08:17:44Z</time>
					</trkpt>
					<trkpt lat="48.909830" lon="1.852870">
						<ele>35</ele>
						<time>2026-04-14T08:17:49Z</time>
					</trkpt>
					<trkpt lat="48.909740" lon="1.852760">
						<ele>35</ele>
						<time>2026-04-14T08:17:51Z</time>
					</trkpt>
					<trkpt lat="48.909600" lon="1.852590">
						<ele>35</ele>
						<time>2026-04-14T08:17:54Z</time>
					</trkpt>
					<trkpt lat="48.909530" lon="1.852490">
						<ele>35</ele>
						<time>2026-04-14T08:17:56Z</time>
					</trkpt>
					<trkpt lat="48.909480" lon="1.852400">
						<ele>35</ele>
						<time>2026-04-14T08:17:57Z</time>
					</trkpt>
					<trkpt lat="48.909460" lon="1.852350">
						<ele>35</ele>
						<time>2026-04-14T08:17:58Z</time>
					</trkpt>
					<trkpt lat="48.909140" lon="1.851800">
						<ele>35</ele>
						<time>2026-04-14T08:18:06Z</time>
					</trkpt>
					<trkpt lat="48.909090" lon="1.851730">
						<ele>35</ele>
						<time>2026-04-14T08:18:08Z</time>
					</trkpt>
					<trkpt lat="48.908920" lon="1.851480">
						<ele>35</ele>
						<time>2026-04-14T08:18:12Z</time>
					</trkpt>
					<trkpt lat="48.908780" lon="1.851320">
						<ele>36</ele>
						<time>2026-04-14T08:18:15Z</time>
					</trkpt>
					<trkpt lat="48.908720" lon="1.851240">
						<ele>36</ele>
						<time>2026-04-14T08:18:16Z</time>
					</trkpt>
					<trkpt lat="48.908560" lon="1.851110">
						<ele>36</ele>
						<time>2026-04-14T08:18:20Z</time>
					</trkpt>
					<trkpt lat="48.908400" lon="1.850910">
						<ele>37</ele>
						<time>2026-04-14T08:18:23Z</time>
					</trkpt>
					<trkpt lat="48.908130" lon="1.850450">
						<ele>39</ele>
						<time>2026-04-14T08:18:30Z</time>
					</trkpt>
					<trkpt lat="48.907980" lon="1.850240">
						<ele>41</ele>
						<time>2026-04-14T08:18:34Z</time>
					</trkpt>
					<trkpt lat="48.907860" lon="1.850040">
						<ele>42</ele>
						<time>2026-04-14T08:18:37Z</time>
					</trkpt>
					<trkpt lat="48.907670" lon="1.849740">
						<ele>44</ele>
						<time>2026-04-14T08:18:42Z</time>
					</trkpt>
					<trkpt lat="48.907470" lon="1.849460">
						<ele>45</ele>
						<time>2026-04-14T08:18:47Z</time>
					</trkpt>
					<trkpt lat="48.907180" lon="1.849070">
						<ele>47</ele>
						<time>2026-04-14T08:18:54Z</time>
					</trkpt>
					<trkpt lat="48.907120" lon="1.849010">
						<ele>48</ele>
						<time>2026-04-14T08:18:55Z</time>
					</trkpt>
					<trkpt lat="48.906840" lon="1.848740">
						<ele>49</ele>
						<time>2026-04-14T08:19:01Z</time>
					</trkpt>
					<trkpt lat="48.906790" lon="1.848690">
						<ele>49</ele>
						<time>2026-04-14T08:19:02Z</time>
					</trkpt>
					<trkpt lat="48.906690" lon="1.848610">
						<ele>50</ele>
						<time>2026-04-14T08:19:04Z</time>
					</trkpt>
					<trkpt lat="48.906620" lon="1.848540">
						<ele>50</ele>
						<time>2026-04-14T08:19:06Z</time>
					</trkpt>
					<trkpt lat="48.906550" lon="1.848470">
						<ele>51</ele>
						<time>2026-04-14T08:19:07Z</time>
					</trkpt>
					<trkpt lat="48.906360" lon="1.848270">
						<ele>54</ele>
						<time>2026-04-14T08:19:11Z</time>
					</trkpt>
					<trkpt lat="48.906140" lon="1.848080">
						<ele>57</ele>
						<time>2026-04-14T08:19:16Z</time>
					</trkpt>
					<trkpt lat="48.906080" lon="1.848040">
						<ele>58</ele>
						<time>2026-04-14T08:19:17Z</time>
					</trkpt>
					<trkpt lat="48.905970" lon="1.847960">
						<ele>59</ele>
						<time>2026-04-14T08:19:19Z</time>
					</trkpt>
					<trkpt lat="48.905890" lon="1.847930">
						<ele>60</ele>
						<time>2026-04-14T08:19:20Z</time>
					</trkpt>
					<trkpt lat="48.905570" lon="1.847800">
						<ele>61</ele>
						<time>2026-04-14T08:19:26Z</time>
					</trkpt>
					<trkpt lat="48.905370" lon="1.847750">
						<ele>62</ele>
						<time>2026-04-14T08:19:30Z</time>
					</trkpt>
					<trkpt lat="48.905000" lon="1.847670">
						<ele>62</ele>
						<time>2026-04-14T08:19:37Z</time>
					</trkpt>
					<trkpt lat="48.904600" lon="1.847650">
						<ele>64</ele>
						<time>2026-04-14T08:19:44Z</time>
					</trkpt>
					<trkpt lat="48.903940" lon="1.847580">
						<ele>66</ele>
						<time>2026-04-14T08:19:56Z</time>
					</trkpt>
					<trkpt lat="48.903690" lon="1.847490">
						<ele>65</ele>
						<time>2026-04-14T08:20:00Z</time>
					</trkpt>
					<trkpt lat="48.903310" lon="1.847310">
						<ele>66</ele>
						<time>2026-04-14T08:20:07Z</time>
					</trkpt>
					<trkpt lat="48.903160" lon="1.847250">
						<ele>67</ele>
						<time>2026-04-14T08:20:10Z</time>
					</trkpt>
					<trkpt lat="48.903050" lon="1.847200">
						<ele>67</ele>
						<time>2026-04-14T08:20:12Z</time>
					</trkpt>
					<trkpt lat="48.902420" lon="1.846940">
						<ele>69</ele>
						<time>2026-04-14T08:20:24Z</time>
					</trkpt>
					<trkpt lat="48.902170" lon="1.846820">
						<ele>70</ele>
						<time>2026-04-14T08:20:28Z</time>
					</trkpt>
					<trkpt lat="48.901580" lon="1.846380">
						<ele>72</ele>
						<time>2026-04-14T08:20:40Z</time>
					</trkpt>
					<trkpt lat="48.901220" lon="1.846150">
						<ele>73</ele>
						<time>2026-04-14T08:20:47Z</time>
					</trkpt>
					<trkpt lat="48.900620" lon="1.845840">
						<ele>71</ele>
						<time>2026-04-14T08:20:58Z</time>
					</trkpt>
					<trkpt lat="48.899870" lon="1.845570">
						<ele>73</ele>
						<time>2026-04-14T08:21:12Z</time>
					</trkpt>
					<trkpt lat="48.899200" lon="1.845380">
						<ele>76</ele>
						<time>2026-04-14T08:21:24Z</time>
					</trkpt>
					<trkpt lat="48.898040" lon="1.845050">
						<ele>80</ele>
						<time>2026-04-14T08:21:45Z</time>
					</trkpt>
					<trkpt lat="48.897960" lon="1.845020">
						<ele>80</ele>
						<time>2026-04-14T08:21:46Z</time>
					</trkpt>
					<trkpt lat="48.897830" lon="1.844960">
						<ele>81</ele>
						<time>2026-04-14T08:21:49Z</time>
					</trkpt>
					<trkpt lat="48.896310" lon="1.843830">
						<ele>88</ele>
						<time>2026-04-14T08:22:19Z</time>
					</trkpt>
					<trkpt lat="48.896080" lon="1.843570">
						<ele>90</ele>
						<time>2026-04-14T08:22:24Z</time>
					</trkpt>
					<trkpt lat="48.895120" lon="1.842070">
						<ele>99</ele>
						<time>2026-04-14T08:22:49Z</time>
					</trkpt>
					<trkpt lat="48.893040" lon="1.839070">
						<ele>102</ele>
						<time>2026-04-14T08:23:40Z</time>
					</trkpt>
					<trkpt lat="48.892930" lon="1.838910">
						<ele>102</ele>
						<time>2026-04-14T08:23:42Z</time>
					</trkpt>
					<trkpt lat="48.892660" lon="1.838640">
						<ele>103</ele>
						<time>2026-04-14T08:23:48Z</time>
					</trkpt>
					<trkpt lat="48.891300" lon="1.837350">
						<ele>106</ele>
						<time>2026-04-14T08:24:17Z</time>
					</trkpt>
					<trkpt lat="48.891020" lon="1.837050">
						<ele>106</ele>
						<time>2026-04-14T08:24:23Z</time>
					</trkpt>
					<trkpt lat="48.890640" lon="1.836470">
						<ele>107</ele>
						<time>2026-04-14T08:24:32Z</time>
					</trkpt>
					<trkpt lat="48.888450" lon="1.832990">
						<ele>114</ele>
						<time>2026-04-14T08:25:29Z</time>
					</trkpt>
					<trkpt lat="48.888180" lon="1.832530">
						<ele>114</ele>
						<time>2026-04-14T08:25:36Z</time>
					</trkpt>
					<trkpt lat="48.887490" lon="1.831040">
						<ele>117</ele>
						<time>2026-04-14T08:25:57Z</time>
					</trkpt>
					<trkpt lat="48.887000" lon="1.830010">
						<ele>118</ele>
						<time>2026-04-14T08:26:12Z</time>
					</trkpt>
					<trkpt lat="48.886740" lon="1.829520">
						<ele>118</ele>
						<time>2026-04-14T08:26:19Z</time>
					</trkpt>
					<trkpt lat="48.886420" lon="1.829030">
						<ele>119</ele>
						<time>2026-04-14T08:26:27Z</time>
					</trkpt>
					<trkpt lat="48.886100" lon="1.828630">
						<ele>120</ele>
						<time>2026-04-14T08:26:35Z</time>
					</trkpt>
					<trkpt lat="48.885750" lon="1.828280">
						<ele>120</ele>
						<time>2026-04-14T08:26:42Z</time>
					</trkpt>
					<trkpt lat="48.885370" lon="1.827960">
						<ele>121</ele>
						<time>2026-04-14T08:26:50Z</time>
					</trkpt>
					<trkpt lat="48.885110" lon="1.827790">
						<ele>122</ele>
						<time>2026-04-14T08:26:55Z</time>
					</trkpt>
					<trkpt lat="48.884160" lon="1.827250">
						<ele>123</ele>
						<time>2026-04-14T08:27:13Z</time>
					</trkpt>
					<trkpt lat="48.883550" lon="1.826930">
						<ele>122</ele>
						<time>2026-04-14T08:27:25Z</time>
					</trkpt>
					<trkpt lat="48.883200" lon="1.826780">
						<ele>122</ele>
						<time>2026-04-14T08:27:31Z</time>
					</trkpt>
					<trkpt lat="48.883080" lon="1.826720">
						<ele>122</ele>
						<time>2026-04-14T08:27:33Z</time>
					</trkpt>
					<trkpt lat="48.883010" lon="1.826630">
						<ele>122</ele>
						<time>2026-04-14T08:27:35Z</time>
					</trkpt>
					<trkpt lat="48.882870" lon="1.826540">
						<ele>122</ele>
						<time>2026-04-14T08:27:38Z</time>
					</trkpt>
					<trkpt lat="48.882480" lon="1.826320">
						<ele>122</ele>
						<time>2026-04-14T08:27:45Z</time>
					</trkpt>
					<trkpt lat="48.881560" lon="1.825810">
						<ele>120</ele>
						<time>2026-04-14T08:28:02Z</time>
					</trkpt>
					<trkpt lat="48.881490" lon="1.825680">
						<ele>120</ele>
						<time>2026-04-14T08:28:04Z</time>
					</trkpt>
					<trkpt lat="48.881430" lon="1.825760">
						<ele>120</ele>
						<time>2026-04-14T08:28:06Z</time>
					</trkpt>
					<trkpt lat="48.881310" lon="1.825650">
						<ele>120</ele>
						<time>2026-04-14T08:28:08Z</time>
					</trkpt>
					<trkpt lat="48.880970" lon="1.825250">
						<ele>119</ele>
						<time>2026-04-14T08:28:16Z</time>
					</trkpt>
					<trkpt lat="48.880410" lon="1.824480">
						<ele>119</ele>
						<time>2026-04-14T08:28:29Z</time>
					</trkpt>
					<trkpt lat="48.880110" lon="1.824070">
						<ele>120</ele>
						<time>2026-04-14T08:28:37Z</time>
					</trkpt>
					<trkpt lat="48.879980" lon="1.823920">
						<ele>120</ele>
						<time>2026-04-14T08:28:39Z</time>
					</trkpt>
					<trkpt lat="48.879490" lon="1.823450">
						<ele>120</ele>
						<time>2026-04-14T08:28:50Z</time>
					</trkpt>
					<trkpt lat="48.879350" lon="1.823300">
						<ele>121</ele>
						<time>2026-04-14T08:28:53Z</time>
					</trkpt>
					<trkpt lat="48.879330" lon="1.823250">
						<ele>121</ele>
						<time>2026-04-14T08:28:54Z</time>
					</trkpt>
					<trkpt lat="48.879080" lon="1.821860">
						<ele>121</ele>
						<time>2026-04-14T08:29:10Z</time>
					</trkpt>
					<trkpt lat="48.879030" lon="1.821520">
						<ele>121</ele>
						<time>2026-04-14T08:29:14Z</time>
					</trkpt>
					<trkpt lat="48.879010" lon="1.821430">
						<ele>121</ele>
						<time>2026-04-14T08:29:16Z</time>
					</trkpt>
					<trkpt lat="48.878860" lon="1.820620">
						<ele>121</ele>
						<time>2026-04-14T08:29:25Z</time>
					</trkpt>
					<trkpt lat="48.878730" lon="1.819950">
						<ele>120</ele>
						<time>2026-04-14T08:29:34Z</time>
					</trkpt>
					<trkpt lat="48.878510" lon="1.819260">
						<ele>119</ele>
						<time>2026-04-14T08:29:43Z</time>
					</trkpt>
					<trkpt lat="48.878180" lon="1.818080">
						<ele>120</ele>
						<time>2026-04-14T08:29:58Z</time>
					</trkpt>
					<trkpt lat="48.877830" lon="1.816800">
						<ele>122</ele>
						<time>2026-04-14T08:30:14Z</time>
					</trkpt>
					<trkpt lat="48.876720" lon="1.813450">
						<ele>124</ele>
						<time>2026-04-14T08:30:58Z</time>
					</trkpt>
					<trkpt lat="48.876090" lon="1.811690">
						<ele>124</ele>
						<time>2026-04-14T08:31:21Z</time>
					</trkpt>
					<trkpt lat="48.875650" lon="1.810760">
						<ele>123</ele>
						<time>2026-04-14T08:31:35Z</time>
					</trkpt>
					<trkpt lat="48.875050" lon="1.809650">
						<ele>123</ele>
						<time>2026-04-14T08:31:51Z</time>
					</trkpt>
					<trkpt lat="48.873350" lon="1.807030">
						<ele>123</ele>
						<time>2026-04-14T08:32:34Z</time>
					</trkpt>
					<trkpt lat="48.871270" lon="1.803270">
						<ele>126</ele>
						<time>2026-04-14T08:33:32Z</time>
					</trkpt>
					<trkpt lat="48.870150" lon="1.801390">
						<ele>128</ele>
						<time>2026-04-14T08:34:02Z</time>
					</trkpt>
					<trkpt lat="48.870140" lon="1.801380">
						<ele>128</ele>
						<time>2026-04-14T08:34:02Z</time>
					</trkpt>
					<trkpt lat="48.869680" lon="1.800640">
						<ele>130</ele>
						<time>2026-04-14T08:34:14Z</time>
					</trkpt>
					<trkpt lat="48.869410" lon="1.800370">
						<ele>131</ele>
						<time>2026-04-14T08:34:19Z</time>
					</trkpt>
					<trkpt lat="48.869330" lon="1.800240">
						<ele>132</ele>
						<time>2026-04-14T08:34:22Z</time>
					</trkpt>
					<trkpt lat="48.869340" lon="1.800210">
						<ele>132</ele>
						<time>2026-04-14T08:34:22Z</time>
					</trkpt>
					<trkpt lat="48.869350" lon="1.800180">
						<ele>132</ele>
						<time>2026-04-14T08:34:22Z</time>
					</trkpt>
					<trkpt lat="48.869350" lon="1.800110">
						<ele>132</ele>
						<time>2026-04-14T08:34:23Z</time>
					</trkpt>
					<trkpt lat="48.869340" lon="1.800070">
						<ele>132</ele>
						<time>2026-04-14T08:34:24Z</time>
					</trkpt>
					<trkpt lat="48.869320" lon="1.800050">
						<ele>132</ele>
						<time>2026-04-14T08:34:24Z</time>
					</trkpt>
					<trkpt lat="48.869270" lon="1.800030">
						<ele>133</ele>
						<time>2026-04-14T08:34:25Z</time>
					</trkpt>
					<trkpt lat="48.869250" lon="1.800040">
						<ele>133</ele>
						<time>2026-04-14T08:34:25Z</time>
					</trkpt>
					<trkpt lat="48.869220" lon="1.800060">
						<ele>133</ele>
						<time>2026-04-14T08:34:26Z</time>
					</trkpt>
					<trkpt lat="48.869200" lon="1.800110">
						<ele>133</ele>
						<time>2026-04-14T08:34:27Z</time>
					</trkpt>
					<trkpt lat="48.869200" lon="1.800150">
						<ele>132</ele>
						<time>2026-04-14T08:34:27Z</time>
					</trkpt>
					<trkpt lat="48.869210" lon="1.800220">
						<ele>132</ele>
						<time>2026-04-14T08:34:28Z</time>
					</trkpt>
					<trkpt lat="48.869220" lon="1.800240">
						<ele>132</ele>
						<time>2026-04-14T08:34:28Z</time>
					</trkpt>
					<trkpt lat="48.868950" lon="1.800940">
						<ele>131</ele>
						<time>2026-04-14T08:34:38Z</time>
					</trkpt>
					<trkpt lat="48.868730" lon="1.801490">
						<ele>132</ele>
						<time>2026-04-14T08:34:45Z</time>
					</trkpt>
					<trkpt lat="48.868660" lon="1.801680">
						<ele>132</ele>
						<time>2026-04-14T08:34:48Z</time>
					</trkpt>
					<trkpt lat="48.868520" lon="1.802140">
						<ele>131</ele>
						<time>2026-04-14T08:34:54Z</time>
					</trkpt>
					<trkpt lat="48.868360" lon="1.802770">
						<ele>130</ele>
						<time>2026-04-14T08:35:02Z</time>
					</trkpt>
					<trkpt lat="48.868170" lon="1.803800">
						<ele>128</ele>
						<time>2026-04-14T08:35:14Z</time>
					</trkpt>
					<trkpt lat="48.868080" lon="1.804220">
						<ele>129</ele>
						<time>2026-04-14T08:35:19Z</time>
					</trkpt>
					<trkpt lat="48.867920" lon="1.804900">
						<ele>128</ele>
						<time>2026-04-14T08:35:28Z</time>
					</trkpt>
					<trkpt lat="48.867740" lon="1.805480">
						<ele>127</ele>
						<time>2026-04-14T08:35:35Z</time>
					</trkpt>
					<trkpt lat="48.867580" lon="1.806270">
						<ele>126</ele>
						<time>2026-04-14T08:35:45Z</time>
					</trkpt>
					<trkpt lat="48.867500" lon="1.807270">
						<ele>125</ele>
						<time>2026-04-14T08:35:57Z</time>
					</trkpt>
					<trkpt lat="48.867440" lon="1.807900">
						<ele>125</ele>
						<time>2026-04-14T08:36:04Z</time>
					</trkpt>
					<trkpt lat="48.867380" lon="1.808430">
						<ele>125</ele>
						<time>2026-04-14T08:36:11Z</time>
					</trkpt>
					<trkpt lat="48.867270" lon="1.808930">
						<ele>125</ele>
						<time>2026-04-14T08:36:17Z</time>
					</trkpt>
					<trkpt lat="48.866860" lon="1.810000">
						<ele>127</ele>
						<time>2026-04-14T08:36:31Z</time>
					</trkpt>
					<trkpt lat="48.866650" lon="1.810450">
						<ele>127</ele>
						<time>2026-04-14T08:36:38Z</time>
					</trkpt>
					<trkpt lat="48.866290" lon="1.811100">
						<ele>128</ele>
						<time>2026-04-14T08:36:48Z</time>
					</trkpt>
					<trkpt lat="48.865540" lon="1.812220">
						<ele>128</ele>
						<time>2026-04-14T08:37:06Z</time>
					</trkpt>
					<trkpt lat="48.865180" lon="1.812730">
						<ele>128</ele>
						<time>2026-04-14T08:37:15Z</time>
					</trkpt>
					<trkpt lat="48.864830" lon="1.813090">
						<ele>128</ele>
						<time>2026-04-14T08:37:23Z</time>
					</trkpt>
					<trkpt lat="48.864130" lon="1.813650">
						<ele>130</ele>
						<time>2026-04-14T08:37:37Z</time>
					</trkpt>
					<trkpt lat="48.863290" lon="1.814350">
						<ele>136</ele>
						<time>2026-04-14T08:37:54Z</time>
					</trkpt>
					<trkpt lat="48.863240" lon="1.814380">
						<ele>136</ele>
						<time>2026-04-14T08:37:55Z</time>
					</trkpt>
					<trkpt lat="48.863110" lon="1.814410">
						<ele>136</ele>
						<time>2026-04-14T08:37:57Z</time>
					</trkpt>
					<trkpt lat="48.863060" lon="1.814390">
						<ele>136</ele>
						<time>2026-04-14T08:37:58Z</time>
					</trkpt>
					<trkpt lat="48.862930" lon="1.814350">
						<ele>137</ele>
						<time>2026-04-14T08:38:00Z</time>
					</trkpt>
					<trkpt lat="48.862530" lon="1.814130">
						<ele>138</ele>
						<time>2026-04-14T08:38:08Z</time>
					</trkpt>
					<trkpt lat="48.862370" lon="1.814120">
						<ele>139</ele>
						<time>2026-04-14T08:38:11Z</time>
					</trkpt>
					<trkpt lat="48.862230" lon="1.814220">
						<ele>140</ele>
						<time>2026-04-14T08:38:13Z</time>
					</trkpt>
					<trkpt lat="48.862140" lon="1.814320">
						<ele>140</ele>
						<time>2026-04-14T08:38:15Z</time>
					</trkpt>
					<trkpt lat="48.861800" lon="1.814820">
						<ele>142</ele>
						<time>2026-04-14T08:38:24Z</time>
					</trkpt>
					<trkpt lat="48.861430" lon="1.815500">
						<ele>142</ele>
						<time>2026-04-14T08:38:34Z</time>
					</trkpt>
					<trkpt lat="48.861400" lon="1.815640">
						<ele>142</ele>
						<time>2026-04-14T08:38:36Z</time>
					</trkpt>
					<trkpt lat="48.861380" lon="1.816390">
						<ele>139</ele>
						<time>2026-04-14T08:38:45Z</time>
					</trkpt>
					<trkpt lat="48.861350" lon="1.816740">
						<ele>138</ele>
						<time>2026-04-14T08:38:49Z</time>
					</trkpt>
					<trkpt lat="48.861300" lon="1.817240">
						<ele>138</ele>
						<time>2026-04-14T08:38:55Z</time>
					</trkpt>
					<trkpt lat="48.861130" lon="1.817600">
						<ele>138</ele>
						<time>2026-04-14T08:39:00Z</time>
					</trkpt>
					<trkpt lat="48.861090" lon="1.817660">
						<ele>138</ele>
						<time>2026-04-14T08:39:01Z</time>
					</trkpt>
					<trkpt lat="48.861040" lon="1.817740">
						<ele>138</ele>
						<time>2026-04-14T08:39:02Z</time>
					</trkpt>
					<trkpt lat="48.860870" lon="1.817940">
						<ele>139</ele>
						<time>2026-04-14T08:39:06Z</time>
					</trkpt>
					<trkpt lat="48.860400" lon="1.818430">
						<ele>139</ele>
						<time>2026-04-14T08:39:16Z</time>
					</trkpt>
					<trkpt lat="48.860080" lon="1.818710">
						<ele>140</ele>
						<time>2026-04-14T08:39:23Z</time>
					</trkpt>
					<trkpt lat="48.859970" lon="1.818860">
						<ele>140</ele>
						<time>2026-04-14T08:39:25Z</time>
					</trkpt>
					<trkpt lat="48.859930" lon="1.818910">
						<ele>140</ele>
						<time>2026-04-14T08:39:26Z</time>
					</trkpt>
					<trkpt lat="48.859790" lon="1.819320">
						<ele>139</ele>
						<time>2026-04-14T08:39:32Z</time>
					</trkpt>
					<trkpt lat="48.859670" lon="1.819590">
						<ele>138</ele>
						<time>2026-04-14T08:39:36Z</time>
					</trkpt>
					<trkpt lat="48.859280" lon="1.820090">
						<ele>138</ele>
						<time>2026-04-14T08:39:45Z</time>
					</trkpt>
					<trkpt lat="48.859130" lon="1.820430">
						<ele>138</ele>
						<time>2026-04-14T08:39:49Z</time>
					</trkpt>
					<trkpt lat="48.859080" lon="1.820760">
						<ele>137</ele>
						<time>2026-04-14T08:39:53Z</time>
					</trkpt>
					<trkpt lat="48.859130" lon="1.821560">
						<ele>135</ele>
						<time>2026-04-14T08:40:03Z</time>
					</trkpt>
					<trkpt lat="48.859080" lon="1.821960">
						<ele>135</ele>
						<time>2026-04-14T08:40:08Z</time>
					</trkpt>
					<trkpt lat="48.859010" lon="1.822390">
						<ele>134</ele>
						<time>2026-04-14T08:40:13Z</time>
					</trkpt>
					<trkpt lat="48.858900" lon="1.822800">
						<ele>134</ele>
						<time>2026-04-14T08:40:18Z</time>
					</trkpt>
					<trkpt lat="48.858770" lon="1.823180">
						<ele>135</ele>
						<time>2026-04-14T08:40:23Z</time>
					</trkpt>
					<trkpt lat="48.858640" lon="1.823600">
						<ele>135</ele>
						<time>2026-04-14T08:40:28Z</time>
					</trkpt>
					<trkpt lat="48.858380" lon="1.824360">
						<ele>134</ele>
						<time>2026-04-14T08:40:38Z</time>
					</trkpt>
					<trkpt lat="48.858240" lon="1.824800">
						<ele>134</ele>
						<time>2026-04-14T08:40:44Z</time>
					</trkpt>
					<trkpt lat="48.858200" lon="1.825020">
						<ele>134</ele>
						<time>2026-04-14T08:40:47Z</time>
					</trkpt>
					<trkpt lat="48.858220" lon="1.825220">
						<ele>134</ele>
						<time>2026-04-14T08:40:49Z</time>
					</trkpt>
					<trkpt lat="48.858260" lon="1.826150">
						<ele>135</ele>
						<time>2026-04-14T08:41:00Z</time>
					</trkpt>
					<trkpt lat="48.858240" lon="1.826420">
						<ele>135</ele>
						<time>2026-04-14T08:41:03Z</time>
					</trkpt>
					<trkpt lat="48.858140" lon="1.826850">
						<ele>135</ele>
						<time>2026-04-14T08:41:09Z</time>
					</trkpt>
					<trkpt lat="48.857900" lon="1.827740">
						<ele>136</ele>
						<time>2026-04-14T08:41:20Z</time>
					</trkpt>
					<trkpt lat="48.857740" lon="1.828470">
						<ele>135</ele>
						<time>2026-04-14T08:41:29Z</time>
					</trkpt>
					<trkpt lat="48.857710" lon="1.828630">
						<ele>134</ele>
						<time>2026-04-14T08:41:31Z</time>
					</trkpt>
					<trkpt lat="48.857680" lon="1.828770">
						<ele>134</ele>
						<time>2026-04-14T08:41:33Z</time>
					</trkpt>
					<trkpt lat="48.857600" lon="1.829280">
						<ele>133</ele>
						<time>2026-04-14T08:41:39Z</time>
					</trkpt>
					<trkpt lat="48.857470" lon="1.830110">
						<ele>131</ele>
						<time>2026-04-14T08:41:49Z</time>
					</trkpt>
					<trkpt lat="48.857430" lon="1.830480">
						<ele>130</ele>
						<time>2026-04-14T08:41:53Z</time>
					</trkpt>
					<trkpt lat="48.857420" lon="1.830790">
						<ele>129</ele>
						<time>2026-04-14T08:41:57Z</time>
					</trkpt>
					<trkpt lat="48.857360" lon="1.831390">
						<ele>128</ele>
						<time>2026-04-14T08:42:04Z</time>
					</trkpt>
					<trkpt lat="48.857010" lon="1.834370">
						<ele>127</ele>
						<time>2026-04-14T08:42:39Z</time>
					</trkpt>
					<trkpt lat="48.856770" lon="1.836830">
						<ele>126</ele>
						<time>2026-04-14T08:43:08Z</time>
					</trkpt>
					<trkpt lat="48.856720" lon="1.837900">
						<ele>127</ele>
						<time>2026-04-14T08:43:21Z</time>
					</trkpt>
					<trkpt lat="48.856710" lon="1.838160">
						<ele>127</ele>
						<time>2026-04-14T08:43:24Z</time>
					</trkpt>
					<trkpt lat="48.856720" lon="1.838460">
						<ele>127</ele>
						<time>2026-04-14T08:43:27Z</time>
					</trkpt>
					<trkpt lat="48.856770" lon="1.838880">
						<ele>128</ele>
						<time>2026-04-14T08:43:32Z</time>
					</trkpt>
					<trkpt lat="48.856840" lon="1.841510">
						<ele>125</ele>
						<time>2026-04-14T08:44:03Z</time>
					</trkpt>
					<trkpt lat="48.856870" lon="1.842240">
						<ele>125</ele>
						<time>2026-04-14T08:44:12Z</time>
					</trkpt>
					<trkpt lat="48.856950" lon="1.842920">
						<ele>125</ele>
						<time>2026-04-14T08:44:20Z</time>
					</trkpt>
					<trkpt lat="48.856970" lon="1.843130">
						<ele>125</ele>
						<time>2026-04-14T08:44:22Z</time>
					</trkpt>
					<trkpt lat="48.857030" lon="1.844080">
						<ele>125</ele>
						<time>2026-04-14T08:44:34Z</time>
					</trkpt>
					<trkpt lat="48.857050" lon="1.846210">
						<ele>126</ele>
						<time>2026-04-14T08:44:58Z</time>
					</trkpt>
					<trkpt lat="48.857010" lon="1.846880">
						<ele>124</ele>
						<time>2026-04-14T08:45:06Z</time>
					</trkpt>
					<trkpt lat="48.856860" lon="1.848770">
						<ele>124</ele>
						<time>2026-04-14T08:45:29Z</time>
					</trkpt>
					<trkpt lat="48.856860" lon="1.849040">
						<ele>124</ele>
						<time>2026-04-14T08:45:32Z</time>
					</trkpt>
					<trkpt lat="48.856940" lon="1.849560">
						<ele>124</ele>
						<time>2026-04-14T08:45:38Z</time>
					</trkpt>
					<trkpt lat="48.856960" lon="1.849650">
						<ele>123</ele>
						<time>2026-04-14T08:45:39Z</time>
					</trkpt>
					<trkpt lat="48.857430" lon="1.851300">
						<ele>122</ele>
						<time>2026-04-14T08:46:00Z</time>
					</trkpt>
					<trkpt lat="48.857740" lon="1.852340">
						<ele>121</ele>
						<time>2026-04-14T08:46:14Z</time>
					</trkpt>
					<trkpt lat="48.857760" lon="1.852420">
						<ele>121</ele>
						<time>2026-04-14T08:46:15Z</time>
					</trkpt>
					<trkpt lat="48.857980" lon="1.853160">
						<ele>120</ele>
						<time>2026-04-14T08:46:24Z</time>
					</trkpt>
					<trkpt lat="48.858140" lon="1.853830">
						<ele>119</ele>
						<time>2026-04-14T08:46:32Z</time>
					</trkpt>
					<trkpt lat="48.858220" lon="1.854220">
						<ele>118</ele>
						<time>2026-04-14T08:46:37Z</time>
					</trkpt>
					<trkpt lat="48.858310" lon="1.854800">
						<ele>118</ele>
						<time>2026-04-14T08:46:44Z</time>
					</trkpt>
					<trkpt lat="48.858380" lon="1.855480">
						<ele>117</ele>
						<time>2026-04-14T08:46:52Z</time>
					</trkpt>
					<trkpt lat="48.858370" lon="1.856510">
						<ele>114</ele>
						<time>2026-04-14T08:47:04Z</time>
					</trkpt>
					<trkpt lat="48.858330" lon="1.857090">
						<ele>112</ele>
						<time>2026-04-14T08:47:11Z</time>
					</trkpt>
					<trkpt lat="48.858140" lon="1.858750">
						<ele>108</ele>
						<time>2026-04-14T08:47:31Z</time>
					</trkpt>
					<trkpt lat="48.858070" lon="1.859580">
						<ele>108</ele>
						<time>2026-04-14T08:47:41Z</time>
					</trkpt>
					<trkpt lat="48.858100" lon="1.860220">
						<ele>108</ele>
						<time>2026-04-14T08:47:48Z</time>
					</trkpt>
					<trkpt lat="48.858220" lon="1.861190">
						<ele>107</ele>
						<time>2026-04-14T08:48:00Z</time>
					</trkpt>
					<trkpt lat="48.858410" lon="1.863050">
						<ele>93</ele>
						<time>2026-04-14T08:48:22Z</time>
					</trkpt>
					<trkpt lat="48.858440" lon="1.864030">
						<ele>90</ele>
						<time>2026-04-14T08:48:33Z</time>
					</trkpt>
					<trkpt lat="48.858400" lon="1.864810">
						<ele>87</ele>
						<time>2026-04-14T08:48:42Z</time>
					</trkpt>
					<trkpt lat="48.858330" lon="1.865370">
						<ele>84</ele>
						<time>2026-04-14T08:48:49Z</time>
					</trkpt>
					<trkpt lat="48.858240" lon="1.865820">
						<ele>82</ele>
						<time>2026-04-14T08:48:55Z</time>
					</trkpt>
					<trkpt lat="48.858110" lon="1.866350">
						<ele>80</ele>
						<time>2026-04-14T08:49:01Z</time>
					</trkpt>
					<trkpt lat="48.857990" lon="1.866800">
						<ele>77</ele>
						<time>2026-04-14T08:49:07Z</time>
					</trkpt>
					<trkpt lat="48.856600" lon="1.870480">
						<ele>57</ele>
						<time>2026-04-14T08:49:57Z</time>
					</trkpt>
					<trkpt lat="48.856570" lon="1.870570">
						<ele>57</ele>
						<time>2026-04-14T08:49:58Z</time>
					</trkpt>
					<trkpt lat="48.856520" lon="1.870790">
						<ele>57</ele>
						<time>2026-04-14T08:50:00Z</time>
					</trkpt>
					<trkpt lat="48.856500" lon="1.870910">
						<ele>57</ele>
						<time>2026-04-14T08:50:02Z</time>
					</trkpt>
					<trkpt lat="48.856510" lon="1.871290">
						<ele>56</ele>
						<time>2026-04-14T08:50:06Z</time>
					</trkpt>
					<trkpt lat="48.856530" lon="1.871490">
						<ele>56</ele>
						<time>2026-04-14T08:50:09Z</time>
					</trkpt>
					<trkpt lat="48.856570" lon="1.871670">
						<ele>56</ele>
						<time>2026-04-14T08:50:11Z</time>
					</trkpt>
					<trkpt lat="48.856620" lon="1.872010">
						<ele>55</ele>
						<time>2026-04-14T08:50:15Z</time>
					</trkpt>
					<trkpt lat="48.856630" lon="1.872230">
						<ele>55</ele>
						<time>2026-04-14T08:50:18Z</time>
					</trkpt>
					<trkpt lat="48.856620" lon="1.872330">
						<ele>54</ele>
						<time>2026-04-14T08:50:19Z</time>
					</trkpt>
					<trkpt lat="48.856590" lon="1.872410">
						<ele>54</ele>
						<time>2026-04-14T08:50:20Z</time>
					</trkpt>
					<trkpt lat="48.856480" lon="1.872810">
						<ele>54</ele>
						<time>2026-04-14T08:50:25Z</time>
					</trkpt>
					<trkpt lat="48.856430" lon="1.872990">
						<ele>54</ele>
						<time>2026-04-14T08:50:27Z</time>
					</trkpt>
					<trkpt lat="48.856400" lon="1.873110">
						<ele>53</ele>
						<time>2026-04-14T08:50:29Z</time>
					</trkpt>
					<trkpt lat="48.856350" lon="1.873230">
						<ele>53</ele>
						<time>2026-04-14T08:50:30Z</time>
					</trkpt>
					<trkpt lat="48.856290" lon="1.873310">
						<ele>53</ele>
						<time>2026-04-14T08:50:32Z</time>
					</trkpt>
					<trkpt lat="48.855930" lon="1.873550">
						<ele>54</ele>
						<time>2026-04-14T08:50:39Z</time>
					</trkpt>
					<trkpt lat="48.855800" lon="1.873660">
						<ele>54</ele>
						<time>2026-04-14T08:50:41Z</time>
					</trkpt>
					<trkpt lat="48.855740" lon="1.873730">
						<ele>54</ele>
						<time>2026-04-14T08:50:43Z</time>
					</trkpt>
					<trkpt lat="48.855730" lon="1.873770">
						<ele>54</ele>
						<time>2026-04-14T08:50:43Z</time>
					</trkpt>
					<trkpt lat="48.855700" lon="1.873820">
						<ele>54</ele>
						<time>2026-04-14T08:50:44Z</time>
					</trkpt>
					<trkpt lat="48.855700" lon="1.873930">
						<ele>54</ele>
						<time>2026-04-14T08:50:45Z</time>
					</trkpt>
					<trkpt lat="48.855730" lon="1.874230">
						<ele>53</ele>
						<time>2026-04-14T08:50:49Z</time>
					</trkpt>
					<trkpt lat="48.855720" lon="1.874350">
						<ele>52</ele>
						<time>2026-04-14T08:50:50Z</time>
					</trkpt>
					<trkpt lat="48.855700" lon="1.874400">
						<ele>52</ele>
						<time>2026-04-14T08:50:51Z</time>
					</trkpt>
					<trkpt lat="48.855550" lon="1.874570">
						<ele>52</ele>
						<time>2026-04-14T08:50:54Z</time>
					</trkpt>
					<trkpt lat="48.855510" lon="1.874600">
						<ele>52</ele>
						<time>2026-04-14T08:50:55Z</time>
					</trkpt>
					<trkpt lat="48.855140" lon="1.874920">
						<ele>51</ele>
						<time>2026-04-14T08:51:03Z</time>
					</trkpt>
					<trkpt lat="48.854840" lon="1.875120">
						<ele>52</ele>
						<time>2026-04-14T08:51:09Z</time>
					</trkpt>
					<trkpt lat="48.854360" lon="1.875430">
						<ele>54</ele>
						<time>2026-04-14T08:51:18Z</time>
					</trkpt>
					<trkpt lat="48.854220" lon="1.875550">
						<ele>54</ele>
						<time>2026-04-14T08:51:21Z</time>
					</trkpt>
					<trkpt lat="48.854040" lon="1.875680">
						<ele>54</ele>
						<time>2026-04-14T08:51:24Z</time>
					</trkpt>
					<trkpt lat="48.853940" lon="1.875710">
						<ele>55</ele>
						<time>2026-04-14T08:51:26Z</time>
					</trkpt>
					<trkpt lat="48.853640" lon="1.875780">
						<ele>55</ele>
						<time>2026-04-14T08:51:31Z</time>
					</trkpt>
					<trkpt lat="48.853150" lon="1.875940">
						<ele>54</ele>
						<time>2026-04-14T08:51:40Z</time>
					</trkpt>
					<trkpt lat="48.853010" lon="1.876020">
						<ele>54</ele>
						<time>2026-04-14T08:51:43Z</time>
					</trkpt>
					<trkpt lat="48.852950" lon="1.876080">
						<ele>54</ele>
						<time>2026-04-14T08:51:44Z</time>
					</trkpt>
					<trkpt lat="48.852860" lon="1.876230">
						<ele>53</ele>
						<time>2026-04-14T08:51:47Z</time>
					</trkpt>
					<trkpt lat="48.852760" lon="1.876470">
						<ele>53</ele>
						<time>2026-04-14T08:51:50Z</time>
					</trkpt>
					<trkpt lat="48.852670" lon="1.876680">
						<ele>52</ele>
						<time>2026-04-14T08:51:53Z</time>
					</trkpt>
					<trkpt lat="48.852630" lon="1.876790">
						<ele>52</ele>
						<time>2026-04-14T08:51:54Z</time>
					</trkpt>
					<trkpt lat="48.852620" lon="1.876810">
						<ele>52</ele>
						<time>2026-04-14T08:51:55Z</time>
					</trkpt>
					<trkpt lat="48.852580" lon="1.876910">
						<ele>51</ele>
						<time>2026-04-14T08:51:56Z</time>
					</trkpt>
					<trkpt lat="48.852530" lon="1.877050">
						<ele>51</ele>
						<time>2026-04-14T08:51:58Z</time>
					</trkpt>
					<trkpt lat="48.852450" lon="1.877240">
						<ele>51</ele>
						<time>2026-04-14T08:52:01Z</time>
					</trkpt>
					<trkpt lat="48.852300" lon="1.877460">
						<ele>50</ele>
						<time>2026-04-14T08:52:04Z</time>
					</trkpt>
					<trkpt lat="48.852170" lon="1.877580">
						<ele>51</ele>
						<time>2026-04-14T08:52:07Z</time>
					</trkpt>
					<trkpt lat="48.851900" lon="1.877720">
						<ele>52</ele>
						<time>2026-04-14T08:52:12Z</time>
					</trkpt>
					<trkpt lat="48.851980" lon="1.878090">
						<ele>53</ele>
						<time>2026-04-14T08:52:17Z</time>
					</trkpt>
					<trkpt lat="48.851810" lon="1.878120">
						<ele>53</ele>
						<time>2026-04-14T08:52:20Z</time>
					</trkpt>
					<trkpt lat="48.851580" lon="1.878110">
						<ele>54</ele>
						<time>2026-04-14T08:52:24Z</time>
					</trkpt>
					<trkpt lat="48.851440" lon="1.878050">
						<ele>55</ele>
						<time>2026-04-14T08:52:26Z</time>
					</trkpt>
					<trkpt lat="48.851160" lon="1.878030">
						<ele>57</ele>
						<time>2026-04-14T08:52:31Z</time>
					</trkpt>
					<trkpt lat="48.851080" lon="1.878010">
						<ele>57</ele>
						<time>2026-04-14T08:52:33Z</time>
					</trkpt>
					<trkpt lat="48.850970" lon="1.877960">
						<ele>58</ele>
						<time>2026-04-14T08:52:35Z</time>
					</trkpt>
					<trkpt lat="48.850620" lon="1.877720">
						<ele>59</ele>
						<time>2026-04-14T08:52:42Z</time>
					</trkpt>
					<trkpt lat="48.850470" lon="1.877640">
						<ele>59</ele>
						<time>2026-04-14T08:52:45Z</time>
					</trkpt>
					<trkpt lat="48.850330" lon="1.877620">
						<ele>60</ele>
						<time>2026-04-14T08:52:47Z</time>
					</trkpt>
					<trkpt lat="48.850230" lon="1.877660">
						<ele>61</ele>
						<time>2026-04-14T08:52:49Z</time>
					</trkpt>
					<trkpt lat="48.850160" lon="1.877720">
						<ele>63</ele>
						<time>2026-04-14T08:52:50Z</time>
					</trkpt>
					<trkpt lat="48.849780" lon="1.878380">
						<ele>70</ele>
						<time>2026-04-14T08:53:01Z</time>
					</trkpt>
					<trkpt lat="48.849610" lon="1.878630">
						<ele>72</ele>
						<time>2026-04-14T08:53:05Z</time>
					</trkpt>
					<trkpt lat="48.849320" lon="1.879050">
						<ele>75</ele>
						<time>2026-04-14T08:53:12Z</time>
					</trkpt>
					<trkpt lat="48.849190" lon="1.879380">
						<ele>77</ele>
						<time>2026-04-14T08:53:16Z</time>
					</trkpt>
					<trkpt lat="48.848420" lon="1.881570">
						<ele>87</ele>
						<time>2026-04-14T08:53:45Z</time>
					</trkpt>
					<trkpt lat="48.848040" lon="1.882550">
						<ele>93</ele>
						<time>2026-04-14T08:53:59Z</time>
					</trkpt>
					<trkpt lat="48.847470" lon="1.883480">
						<ele>95</ele>
						<time>2026-04-14T08:54:14Z</time>
					</trkpt>
					<trkpt lat="48.847280" lon="1.883730">
						<ele>95</ele>
						<time>2026-04-14T08:54:18Z</time>
					</trkpt>
					<trkpt lat="48.847210" lon="1.883810">
						<ele>96</ele>
						<time>2026-04-14T08:54:20Z</time>
					</trkpt>
					<trkpt lat="48.846980" lon="1.884100">
						<ele>97</ele>
						<time>2026-04-14T08:54:25Z</time>
					</trkpt>
					<trkpt lat="48.846730" lon="1.884390">
						<ele>99</ele>
						<time>2026-04-14T08:54:31Z</time>
					</trkpt>
					<trkpt lat="48.846270" lon="1.884720">
						<ele>100</ele>
						<time>2026-04-14T08:54:40Z</time>
					</trkpt>
					<trkpt lat="48.845990" lon="1.884840">
						<ele>101</ele>
						<time>2026-04-14T08:54:45Z</time>
					</trkpt>
					<trkpt lat="48.845740" lon="1.884900">
						<ele>102</ele>
						<time>2026-04-14T08:54:49Z</time>
					</trkpt>
					<trkpt lat="48.843650" lon="1.884940">
						<ele>104</ele>
						<time>2026-04-14T08:55:27Z</time>
					</trkpt>
					<trkpt lat="48.843130" lon="1.884960">
						<ele>105</ele>
						<time>2026-04-14T08:55:36Z</time>
					</trkpt>
					<trkpt lat="48.842900" lon="1.885050">
						<ele>105</ele>
						<time>2026-04-14T08:55:40Z</time>
					</trkpt>
					<trkpt lat="48.842620" lon="1.885330">
						<ele>105</ele>
						<time>2026-04-14T08:55:46Z</time>
					</trkpt>
					<trkpt lat="48.842310" lon="1.885840">
						<ele>105</ele>
						<time>2026-04-14T08:55:54Z</time>
					</trkpt>
					<trkpt lat="48.842210" lon="1.886000">
						<ele>104</ele>
						<time>2026-04-14T08:55:57Z</time>
					</trkpt>
					<trkpt lat="48.841820" lon="1.886630">
						<ele>102</ele>
						<time>2026-04-14T08:56:07Z</time>
					</trkpt>
					<trkpt lat="48.841700" lon="1.886820">
						<ele>102</ele>
						<time>2026-04-14T08:56:10Z</time>
					</trkpt>
					<trkpt lat="48.841450" lon="1.887140">
						<ele>101</ele>
						<time>2026-04-14T08:56:16Z</time>
					</trkpt>
					<trkpt lat="48.839820" lon="1.889040">
						<ele>101</ele>
						<time>2026-04-14T08:56:52Z</time>
					</trkpt>
					<trkpt lat="48.838740" lon="1.891120">
						<ele>101</ele>
						<time>2026-04-14T08:57:23Z</time>
					</trkpt>
					<trkpt lat="48.838650" lon="1.891290">
						<ele>101</ele>
						<time>2026-04-14T08:57:26Z</time>
					</trkpt>
					<trkpt lat="48.835700" lon="1.897170">
						<ele>107</ele>
						<time>2026-04-14T08:58:52Z</time>
					</trkpt>
					<trkpt lat="48.835590" lon="1.897380">
						<ele>108</ele>
						<time>2026-04-14T08:58:56Z</time>
					</trkpt>
					<trkpt lat="48.835520" lon="1.897570">
						<ele>108</ele>
						<time>2026-04-14T08:58:58Z</time>
					</trkpt>
					<trkpt lat="48.835480" lon="1.897760">
						<ele>107</ele>
						<time>2026-04-14T08:59:00Z</time>
					</trkpt>
					<trkpt lat="48.835390" lon="1.898430">
						<ele>106</ele>
						<time>2026-04-14T08:59:08Z</time>
					</trkpt>
					<trkpt lat="48.835340" lon="1.898540">
						<ele>106</ele>
						<time>2026-04-14T08:59:10Z</time>
					</trkpt>
					<trkpt lat="48.835260" lon="1.898550">
						<ele>107</ele>
						<time>2026-04-14T08:59:11Z</time>
					</trkpt>
					<trkpt lat="48.834830" lon="1.898420">
						<ele>109</ele>
						<time>2026-04-14T08:59:19Z</time>
					</trkpt>
					<trkpt lat="48.834680" lon="1.898390">
						<ele>109</ele>
						<time>2026-04-14T08:59:22Z</time>
					</trkpt>
					<trkpt lat="48.834540" lon="1.898400">
						<ele>110</ele>
						<time>2026-04-14T08:59:24Z</time>
					</trkpt>
					<trkpt lat="48.834480" lon="1.898400">
						<ele>110</ele>
						<time>2026-04-14T08:59:26Z</time>
					</trkpt>
					<trkpt lat="48.834290" lon="1.898480">
						<ele>111</ele>
						<time>2026-04-14T08:59:29Z</time>
					</trkpt>
					<trkpt lat="48.834110" lon="1.898560">
						<ele>112</ele>
						<time>2026-04-14T08:59:32Z</time>
					</trkpt>
					<trkpt lat="48.834010" lon="1.898640">
						<ele>112</ele>
						<time>2026-04-14T08:59:34Z</time>
					</trkpt>
					<trkpt lat="48.833930" lon="1.898780">
						<ele>112</ele>
						<time>2026-04-14T08:59:37Z</time>
					</trkpt>
					<trkpt lat="48.833920" lon="1.898900">
						<ele>111</ele>
						<time>2026-04-14T08:59:38Z</time>
					</trkpt>
					<trkpt lat="48.833930" lon="1.899050">
						<ele>111</ele>
						<time>2026-04-14T08:59:40Z</time>
					</trkpt>
					<trkpt lat="48.833970" lon="1.899320">
						<ele>111</ele>
						<time>2026-04-14T08:59:43Z</time>
					</trkpt>
					<trkpt lat="48.834020" lon="1.899550">
						<ele>110</ele>
						<time>2026-04-14T08:59:46Z</time>
					</trkpt>
					<trkpt lat="48.834110" lon="1.899790">
						<ele>109</ele>
						<time>2026-04-14T08:59:49Z</time>
					</trkpt>
					<trkpt lat="48.834180" lon="1.899980">
						<ele>109</ele>
						<time>2026-04-14T08:59:52Z</time>
					</trkpt>
					<trkpt lat="48.834170" lon="1.900150">
						<ele>109</ele>
						<time>2026-04-14T08:59:54Z</time>
					</trkpt>
					<trkpt lat="48.834120" lon="1.900400">
						<ele>109</ele>
						<time>2026-04-14T08:59:57Z</time>
					</trkpt>
					<trkpt lat="48.834020" lon="1.900890">
						<ele>108</ele>
						<time>2026-04-14T09:00:03Z</time>
					</trkpt>
					<trkpt lat="48.833760" lon="1.902110">
						<ele>107</ele>
						<time>2026-04-14T09:00:18Z</time>
					</trkpt>
					<trkpt lat="48.833400" lon="1.903040">
						<ele>106</ele>
						<time>2026-04-14T09:00:30Z</time>
					</trkpt>
					<trkpt lat="48.833330" lon="1.903180">
						<ele>106</ele>
						<time>2026-04-14T09:00:32Z</time>
					</trkpt>
					<trkpt lat="48.833250" lon="1.903320">
						<ele>107</ele>
						<time>2026-04-14T09:00:35Z</time>
					</trkpt>
					<trkpt lat="48.833170" lon="1.903460">
						<ele>107</ele>
						<time>2026-04-14T09:00:37Z</time>
					</trkpt>
					<trkpt lat="48.833150" lon="1.903540">
						<ele>107</ele>
						<time>2026-04-14T09:00:38Z</time>
					</trkpt>
					<trkpt lat="48.833080" lon="1.903740">
						<ele>107</ele>
						<time>2026-04-14T09:00:40Z</time>
					</trkpt>
					<trkpt lat="48.833030" lon="1.903940">
						<ele>107</ele>
						<time>2026-04-14T09:00:43Z</time>
					</trkpt>
					<trkpt lat="48.832980" lon="1.904200">
						<ele>107</ele>
						<time>2026-04-14T09:00:46Z</time>
					</trkpt>
					<trkpt lat="48.832900" lon="1.904620">
						<ele>108</ele>
						<time>2026-04-14T09:00:51Z</time>
					</trkpt>
					<trkpt lat="48.832830" lon="1.904830">
						<ele>108</ele>
						<time>2026-04-14T09:00:54Z</time>
					</trkpt>
					<trkpt lat="48.832750" lon="1.905060">
						<ele>109</ele>
						<time>2026-04-14T09:00:57Z</time>
					</trkpt>
					<trkpt lat="48.832730" lon="1.905110">
						<ele>110</ele>
						<time>2026-04-14T09:00:58Z</time>
					</trkpt>
					<trkpt lat="48.832550" lon="1.905560">
						<ele>112</ele>
						<time>2026-04-14T09:01:04Z</time>
					</trkpt>
					<trkpt lat="48.832440" lon="1.905890">
						<ele>113</ele>
						<time>2026-04-14T09:01:08Z</time>
					</trkpt>
					<trkpt lat="48.832160" lon="1.906760">
						<ele>113</ele>
						<time>2026-04-14T09:01:20Z</time>
					</trkpt>
					<trkpt lat="48.831880" lon="1.907560">
						<ele>114</ele>
						<time>2026-04-14T09:01:30Z</time>
					</trkpt>
					<trkpt lat="48.831750" lon="1.907960">
						<ele>114</ele>
						<time>2026-04-14T09:01:35Z</time>
					</trkpt>
					<trkpt lat="48.831710" lon="1.908110">
						<ele>114</ele>
						<time>2026-04-14T09:01:37Z</time>
					</trkpt>
					<trkpt lat="48.831570" lon="1.908920">
						<ele>113</ele>
						<time>2026-04-14T09:01:47Z</time>
					</trkpt>
					<trkpt lat="48.831530" lon="1.909060">
						<ele>113</ele>
						<time>2026-04-14T09:01:49Z</time>
					</trkpt>
					<trkpt lat="48.831460" lon="1.909290">
						<ele>113</ele>
						<time>2026-04-14T09:01:52Z</time>
					</trkpt>
					<trkpt lat="48.831300" lon="1.909690">
						<ele>112</ele>
						<time>2026-04-14T09:01:57Z</time>
					</trkpt>
					<trkpt lat="48.830970" lon="1.910490">
						<ele>111</ele>
						<time>2026-04-14T09:02:08Z</time>
					</trkpt>
					<trkpt lat="48.830540" lon="1.911400">
						<ele>113</ele>
						<time>2026-04-14T09:02:21Z</time>
					</trkpt>
					<trkpt lat="48.830340" lon="1.911930">
						<ele>113</ele>
						<time>2026-04-14T09:02:29Z</time>
					</trkpt>
					<trkpt lat="48.830190" lon="1.912360">
						<ele>113</ele>
						<time>2026-04-14T09:02:34Z</time>
					</trkpt>
					<trkpt lat="48.830050" lon="1.912910">
						<ele>113</ele>
						<time>2026-04-14T09:02:41Z</time>
					</trkpt>
					<trkpt lat="48.829850" lon="1.914950">
						<ele>112</ele>
						<time>2026-04-14T09:03:05Z</time>
					</trkpt>
					<trkpt lat="48.829730" lon="1.915420">
						<ele>112</ele>
						<time>2026-04-14T09:03:11Z</time>
					</trkpt>
					<trkpt lat="48.829560" lon="1.915910">
						<ele>112</ele>
						<time>2026-04-14T09:03:18Z</time>
					</trkpt>
					<trkpt lat="48.829080" lon="1.917260">
						<ele>111</ele>
						<time>2026-04-14T09:03:36Z</time>
					</trkpt>
					<trkpt lat="48.827860" lon="1.919380">
						<ele>114</ele>
						<time>2026-04-14T09:04:09Z</time>
					</trkpt>
					<trkpt lat="48.826370" lon="1.921360">
						<ele>115</ele>
						<time>2026-04-14T09:04:44Z</time>
					</trkpt>
					<trkpt lat="48.826260" lon="1.921530">
						<ele>115</ele>
						<time>2026-04-14T09:04:47Z</time>
					</trkpt>
					<trkpt lat="48.826120" lon="1.921730">
						<ele>115</ele>
						<time>2026-04-14T09:04:50Z</time>
					</trkpt>
					<trkpt lat="48.825880" lon="1.922050">
						<ele>116</ele>
						<time>2026-04-14T09:04:56Z</time>
					</trkpt>
					<trkpt lat="48.825590" lon="1.922640">
						<ele>117</ele>
						<time>2026-04-14T09:05:04Z</time>
					</trkpt>
					<trkpt lat="48.824620" lon="1.925830">
						<ele>118</ele>
						<time>2026-04-14T09:05:46Z</time>
					</trkpt>
					<trkpt lat="48.824330" lon="1.926790">
						<ele>120</ele>
						<time>2026-04-14T09:05:58Z</time>
					</trkpt>
					<trkpt lat="48.824040" lon="1.927360">
						<ele>121</ele>
						<time>2026-04-14T09:06:06Z</time>
					</trkpt>
					<trkpt lat="48.823950" lon="1.927460">
						<ele>122</ele>
						<time>2026-04-14T09:06:08Z</time>
					</trkpt>
					<trkpt lat="48.823080" lon="1.928150">
						<ele>125</ele>
						<time>2026-04-14T09:06:26Z</time>
					</trkpt>
					<trkpt lat="48.822970" lon="1.928210">
						<ele>125</ele>
						<time>2026-04-14T09:06:28Z</time>
					</trkpt>
					<trkpt lat="48.822080" lon="1.928900">
						<ele>129</ele>
						<time>2026-04-14T09:06:46Z</time>
					</trkpt>
					<trkpt lat="48.821630" lon="1.929250">
						<ele>131</ele>
						<time>2026-04-14T09:06:55Z</time>
					</trkpt>
					<trkpt lat="48.821580" lon="1.929290">
						<ele>131</ele>
						<time>2026-04-14T09:06:56Z</time>
					</trkpt>
					<trkpt lat="48.821520" lon="1.929310">
						<ele>131</ele>
						<time>2026-04-14T09:06:57Z</time>
					</trkpt>
					<trkpt lat="48.821460" lon="1.929310">
						<ele>131</ele>
						<time>2026-04-14T09:06:58Z</time>
					</trkpt>
					<trkpt lat="48.821440" lon="1.929250">
						<ele>131</ele>
						<time>2026-04-14T09:06:59Z</time>
					</trkpt>
					<trkpt lat="48.821410" lon="1.929230">
						<ele>131</ele>
						<time>2026-04-14T09:06:59Z</time>
					</trkpt>
					<trkpt lat="48.821360" lon="1.929220">
						<ele>132</ele>
						<time>2026-04-14T09:07:00Z</time>
					</trkpt>
					<trkpt lat="48.821310" lon="1.929270">
						<ele>132</ele>
						<time>2026-04-14T09:07:01Z</time>
					</trkpt>
					<trkpt lat="48.821300" lon="1.929300">
						<ele>132</ele>
						<time>2026-04-14T09:07:02Z</time>
					</trkpt>
					<trkpt lat="48.821290" lon="1.929340">
						<ele>132</ele>
						<time>2026-04-14T09:07:02Z</time>
					</trkpt>
					<trkpt lat="48.821300" lon="1.929380">
						<ele>131</ele>
						<time>2026-04-14T09:07:03Z</time>
					</trkpt>
					<trkpt lat="48.821330" lon="1.929460">
						<ele>131</ele>
						<time>2026-04-14T09:07:04Z</time>
					</trkpt>
					<trkpt lat="48.821350" lon="1.929480">
						<ele>131</ele>
						<time>2026-04-14T09:07:04Z</time>
					</trkpt>
					<trkpt lat="48.821130" lon="1.930010">
						<ele>130</ele>
						<time>2026-04-14T09:07:12Z</time>
					</trkpt>
					<trkpt lat="48.821060" lon="1.930220">
						<ele>129</ele>
						<time>2026-04-14T09:07:14Z</time>
					</trkpt>
					<trkpt lat="48.820870" lon="1.931050">
						<ele>128</ele>
						<time>2026-04-14T09:07:25Z</time>
					</trkpt>
					<trkpt lat="48.820820" lon="1.931310">
						<ele>127</ele>
						<time>2026-04-14T09:07:28Z</time>
					</trkpt>
					<trkpt lat="48.820710" lon="1.932150">
						<ele>127</ele>
						<time>2026-04-14T09:07:38Z</time>
					</trkpt>
					<trkpt lat="48.820690" lon="1.932360">
						<ele>127</ele>
						<time>2026-04-14T09:07:40Z</time>
					</trkpt>
					<trkpt lat="48.820640" lon="1.932760">
						<ele>128</ele>
						<time>2026-04-14T09:07:45Z</time>
					</trkpt>
					<trkpt lat="48.820380" lon="1.934810">
						<ele>127</ele>
						<time>2026-04-14T09:08:09Z</time>
					</trkpt>
					<trkpt lat="48.820550" lon="1.935130">
						<ele>126</ele>
						<time>2026-04-14T09:08:14Z</time>
					</trkpt>
					<trkpt lat="48.821540" lon="1.936950">
						<ele>119</ele>
						<time>2026-04-14T09:08:42Z</time>
					</trkpt>
					<trkpt lat="48.821840" lon="1.937500">
						<ele>117</ele>
						<time>2026-04-14T09:08:50Z</time>
					</trkpt>
					<trkpt lat="48.821980" lon="1.937770">
						<ele>116</ele>
						<time>2026-04-14T09:08:54Z</time>
					</trkpt>
					<trkpt lat="48.822160" lon="1.938100">
						<ele>116</ele>
						<time>2026-04-14T09:08:59Z</time>
					</trkpt>
					<trkpt lat="48.822210" lon="1.938190">
						<ele>116</ele>
						<time>2026-04-14T09:09:01Z</time>
					</trkpt>
					<trkpt lat="48.823190" lon="1.940010">
						<ele>112</ele>
						<time>2026-04-14T09:09:28Z</time>
					</trkpt>
					<trkpt lat="48.823540" lon="1.940680">
						<ele>110</ele>
						<time>2026-04-14T09:09:38Z</time>
					</trkpt>
					<trkpt lat="48.823760" lon="1.941090">
						<ele>110</ele>
						<time>2026-04-14T09:09:45Z</time>
					</trkpt>
					<trkpt lat="48.824150" lon="1.941820">
						<ele>109</ele>
						<time>2026-04-14T09:09:56Z</time>
					</trkpt>
					<trkpt lat="48.824350" lon="1.942250">
						<ele>107</ele>
						<time>2026-04-14T09:10:02Z</time>
					</trkpt>
					<trkpt lat="48.824610" lon="1.942870">
						<ele>106</ele>
						<time>2026-04-14T09:10:10Z</time>
					</trkpt>
					<trkpt lat="48.824930" lon="1.943650">
						<ele>105</ele>
						<time>2026-04-14T09:10:21Z</time>
					</trkpt>
					<trkpt lat="48.824960" lon="1.943710">
						<ele>105</ele>
						<time>2026-04-14T09:10:22Z</time>
					</trkpt>
					<trkpt lat="48.825210" lon="1.944360">
						<ele>104</ele>
						<time>2026-04-14T09:10:31Z</time>
					</trkpt>
					<trkpt lat="48.825290" lon="1.944720">
						<ele>105</ele>
						<time>2026-04-14T09:10:35Z</time>
					</trkpt>
					<trkpt lat="48.825260" lon="1.944780">
						<ele>105</ele>
						<time>2026-04-14T09:10:36Z</time>
					</trkpt>
					<trkpt lat="48.825250" lon="1.944870">
						<ele>105</ele>
						<time>2026-04-14T09:10:37Z</time>
					</trkpt>
					<trkpt lat="48.825260" lon="1.944910">
						<ele>105</ele>
						<time>2026-04-14T09:10:38Z</time>
					</trkpt>
					<trkpt lat="48.825270" lon="1.944950">
						<ele>105</ele>
						<time>2026-04-14T09:10:38Z</time>
					</trkpt>
					<trkpt lat="48.825300" lon="1.944970">
						<ele>105</ele>
						<time>2026-04-14T09:10:39Z</time>
					</trkpt>
					<trkpt lat="48.825330" lon="1.944990">
						<ele>106</ele>
						<time>2026-04-14T09:10:39Z</time>
					</trkpt>
					<trkpt lat="48.825360" lon="1.944990">
						<ele>106</ele>
						<time>2026-04-14T09:10:40Z</time>
					</trkpt>
					<trkpt lat="48.825390" lon="1.944980">
						<ele>106</ele>
						<time>2026-04-14T09:10:40Z</time>
					</trkpt>
					<trkpt lat="48.825410" lon="1.944950">
						<ele>106</ele>
						<time>2026-04-14T09:10:41Z</time>
					</trkpt>
					<trkpt lat="48.825470" lon="1.945040">
						<ele>106</ele>
						<time>2026-04-14T09:10:42Z</time>
					</trkpt>
					<trkpt lat="48.825610" lon="1.945250">
						<ele>107</ele>
						<time>2026-04-14T09:10:46Z</time>
					</trkpt>
					<trkpt lat="48.825870" lon="1.945810">
						<ele>109</ele>
						<time>2026-04-14T09:10:54Z</time>
					</trkpt>
					<trkpt lat="48.825900" lon="1.945880">
						<ele>110</ele>
						<time>2026-04-14T09:10:55Z</time>
					</trkpt>
					<trkpt lat="48.825660" lon="1.946600">
						<ele>109</ele>
						<time>2026-04-14T09:11:04Z</time>
					</trkpt>
					<trkpt lat="48.825630" lon="1.946730">
						<ele>109</ele>
						<time>2026-04-14T09:11:06Z</time>
					</trkpt>
					<trkpt lat="48.825630" lon="1.946780">
						<ele>109</ele>
						<time>2026-04-14T09:11:07Z</time>
					</trkpt>
					<trkpt lat="48.825570" lon="1.946890">
						<ele>109</ele>
						<time>2026-04-14T09:11:08Z</time>
					</trkpt>
					<trkpt lat="48.824730" lon="1.949380">
						<ele>112</ele>
						<time>2026-04-14T09:11:41Z</time>
					</trkpt>
					<trkpt lat="48.824280" lon="1.950680">
						<ele>115</ele>
						<time>2026-04-14T09:11:58Z</time>
					</trkpt>
					<trkpt lat="48.824180" lon="1.950990">
						<ele>115</ele>
						<time>2026-04-14T09:12:02Z</time>
					</trkpt>
					<trkpt lat="48.824080" lon="1.951270">
						<ele>116</ele>
						<time>2026-04-14T09:12:06Z</time>
					</trkpt>
					<trkpt lat="48.823930" lon="1.951790">
						<ele>117</ele>
						<time>2026-04-14T09:12:13Z</time>
					</trkpt>
					<trkpt lat="48.823870" lon="1.952220">
						<ele>117</ele>
						<time>2026-04-14T09:12:18Z</time>
					</trkpt>
					<trkpt lat="48.823840" lon="1.952560">
						<ele>118</ele>
						<time>2026-04-14T09:12:22Z</time>
					</trkpt>
					<trkpt lat="48.823820" lon="1.953230">
						<ele>119</ele>
						<time>2026-04-14T09:12:30Z</time>
					</trkpt>
					<trkpt lat="48.823820" lon="1.953300">
						<ele>119</ele>
						<time>2026-04-14T09:12:31Z</time>
					</trkpt>
					<trkpt lat="48.823820" lon="1.953610">
						<ele>119</ele>
						<time>2026-04-14T09:12:34Z</time>
					</trkpt>
					<trkpt lat="48.823820" lon="1.953660">
						<ele>119</ele>
						<time>2026-04-14T09:12:35Z</time>
					</trkpt>
					<trkpt lat="48.823820" lon="1.954340">
						<ele>120</ele>
						<time>2026-04-14T09:12:43Z</time>
					</trkpt>
					<trkpt lat="48.823820" lon="1.955000">
						<ele>120</ele>
						<time>2026-04-14T09:12:50Z</time>
					</trkpt>
					<trkpt lat="48.823780" lon="1.956350">
						<ele>119</ele>
						<time>2026-04-14T09:13:06Z</time>
					</trkpt>
					<trkpt lat="48.823780" lon="1.956450">
						<ele>119</ele>
						<time>2026-04-14T09:13:07Z</time>
					</trkpt>
					<trkpt lat="48.823750" lon="1.956890">
						<ele>119</ele>
						<time>2026-04-14T09:13:13Z</time>
					</trkpt>
					<trkpt lat="48.823730" lon="1.957100">
						<ele>119</ele>
						<time>2026-04-14T09:13:15Z</time>
					</trkpt>
					<trkpt lat="48.823680" lon="1.957490">
						<ele>119</ele>
						<time>2026-04-14T09:13:20Z</time>
					</trkpt>
					<trkpt lat="48.823670" lon="1.957510">
						<ele>119</ele>
						<time>2026-04-14T09:13:20Z</time>
					</trkpt>
					<trkpt lat="48.823640" lon="1.957740">
						<ele>119</ele>
						<time>2026-04-14T09:13:23Z</time>
					</trkpt>
					<trkpt lat="48.823580" lon="1.958020">
						<ele>119</ele>
						<time>2026-04-14T09:13:26Z</time>
					</trkpt>
					<trkpt lat="48.823400" lon="1.958860">
						<ele>120</ele>
						<time>2026-04-14T09:13:37Z</time>
					</trkpt>
					<trkpt lat="48.823080" lon="1.960250">
						<ele>122</ele>
						<time>2026-04-14T09:13:54Z</time>
					</trkpt>
					<trkpt lat="48.823040" lon="1.960440">
						<ele>122</ele>
						<time>2026-04-14T09:13:56Z</time>
					</trkpt>
					<trkpt lat="48.823000" lon="1.960600">
						<ele>122</ele>
						<time>2026-04-14T09:13:58Z</time>
					</trkpt>
					<trkpt lat="48.822640" lon="1.962220">
						<ele>122</ele>
						<time>2026-04-14T09:14:18Z</time>
					</trkpt>
					<trkpt lat="48.822610" lon="1.962400">
						<ele>122</ele>
						<time>2026-04-14T09:14:20Z</time>
					</trkpt>
					<trkpt lat="48.822570" lon="1.962390">
						<ele>122</ele>
						<time>2026-04-14T09:14:21Z</time>
					</trkpt>
					<trkpt lat="48.822540" lon="1.962390">
						<ele>122</ele>
						<time>2026-04-14T09:14:22Z</time>
					</trkpt>
					<trkpt lat="48.822500" lon="1.962400">
						<ele>122</ele>
						<time>2026-04-14T09:14:22Z</time>
					</trkpt>
					<trkpt lat="48.822470" lon="1.962430">
						<ele>122</ele>
						<time>2026-04-14T09:14:23Z</time>
					</trkpt>
					<trkpt lat="48.822450" lon="1.962470">
						<ele>122</ele>
						<time>2026-04-14T09:14:24Z</time>
					</trkpt>
					<trkpt lat="48.822430" lon="1.962520">
						<ele>122</ele>
						<time>2026-04-14T09:14:24Z</time>
					</trkpt>
					<trkpt lat="48.822430" lon="1.962620">
						<ele>122</ele>
						<time>2026-04-14T09:14:25Z</time>
					</trkpt>
					<trkpt lat="48.822440" lon="1.962670">
						<ele>122</ele>
						<time>2026-04-14T09:14:26Z</time>
					</trkpt>
					<trkpt lat="48.822460" lon="1.962710">
						<ele>122</ele>
						<time>2026-04-14T09:14:27Z</time>
					</trkpt>
					<trkpt lat="48.822510" lon="1.962770">
						<ele>123</ele>
						<time>2026-04-14T09:14:28Z</time>
					</trkpt>
					<trkpt lat="48.822480" lon="1.962920">
						<ele>123</ele>
						<time>2026-04-14T09:14:30Z</time>
					</trkpt>
					<trkpt lat="48.822390" lon="1.963320">
						<ele>124</ele>
						<time>2026-04-14T09:14:35Z</time>
					</trkpt>
					<trkpt lat="48.822170" lon="1.964240">
						<ele>125</ele>
						<time>2026-04-14T09:14:46Z</time>
					</trkpt>
					<trkpt lat="48.822060" lon="1.964730">
						<ele>125</ele>
						<time>2026-04-14T09:14:52Z</time>
					</trkpt>
					<trkpt lat="48.821910" lon="1.965350">
						<ele>126</ele>
						<time>2026-04-14T09:15:00Z</time>
					</trkpt>
					<trkpt lat="48.821840" lon="1.965680">
						<ele>126</ele>
						<time>2026-04-14T09:15:04Z</time>
					</trkpt>
					<trkpt lat="48.821810" lon="1.965670">
						<ele>126</ele>
						<time>2026-04-14T09:15:04Z</time>
					</trkpt>
					<trkpt lat="48.821770" lon="1.965670">
						<ele>126</ele>
						<time>2026-04-14T09:15:05Z</time>
					</trkpt>
					<trkpt lat="48.821740" lon="1.965700">
						<ele>126</ele>
						<time>2026-04-14T09:15:06Z</time>
					</trkpt>
					<trkpt lat="48.821720" lon="1.965740">
						<ele>126</ele>
						<time>2026-04-14T09:15:06Z</time>
					</trkpt>
					<trkpt lat="48.821700" lon="1.965780">
						<ele>126</ele>
						<time>2026-04-14T09:15:07Z</time>
					</trkpt>
					<trkpt lat="48.821700" lon="1.965830">
						<ele>126</ele>
						<time>2026-04-14T09:15:08Z</time>
					</trkpt>
					<trkpt lat="48.821700" lon="1.965880">
						<ele>126</ele>
						<time>2026-04-14T09:15:08Z</time>
					</trkpt>
					<trkpt lat="48.821720" lon="1.965920">
						<ele>126</ele>
						<time>2026-04-14T09:15:09Z</time>
					</trkpt>
					<trkpt lat="48.821740" lon="1.965960">
						<ele>126</ele>
						<time>2026-04-14T09:15:09Z</time>
					</trkpt>
					<trkpt lat="48.821770" lon="1.965980">
						<ele>126</ele>
						<time>2026-04-14T09:15:10Z</time>
					</trkpt>
					<trkpt lat="48.821700" lon="1.966280">
						<ele>127</ele>
						<time>2026-04-14T09:15:14Z</time>
					</trkpt>
					<trkpt lat="48.821330" lon="1.967820">
						<ele>127</ele>
						<time>2026-04-14T09:15:33Z</time>
					</trkpt>
					<trkpt lat="48.821260" lon="1.968140">
						<ele>127</ele>
						<time>2026-04-14T09:15:37Z</time>
					</trkpt>
					<trkpt lat="48.821210" lon="1.968460">
						<ele>128</ele>
						<time>2026-04-14T09:15:41Z</time>
					</trkpt>
					<trkpt lat="48.821160" lon="1.968890">
						<ele>129</ele>
						<time>2026-04-14T09:15:46Z</time>
					</trkpt>
					<trkpt lat="48.821150" lon="1.969070">
						<ele>129</ele>
						<time>2026-04-14T09:15:48Z</time>
					</trkpt>
					<trkpt lat="48.821150" lon="1.969620">
						<ele>129</ele>
						<time>2026-04-14T09:15:54Z</time>
					</trkpt>
					<trkpt lat="48.821160" lon="1.969830">
						<ele>130</ele>
						<time>2026-04-14T09:15:57Z</time>
					</trkpt>
					<trkpt lat="48.821190" lon="1.970220">
						<ele>130</ele>
						<time>2026-04-14T09:16:01Z</time>
					</trkpt>
					<trkpt lat="48.821170" lon="1.970280">
						<ele>130</ele>
						<time>2026-04-14T09:16:02Z</time>
					</trkpt>
					<trkpt lat="48.821180" lon="1.970310">
						<ele>130</ele>
						<time>2026-04-14T09:16:03Z</time>
					</trkpt>
					<trkpt lat="48.821200" lon="1.970360">
						<ele>130</ele>
						<time>2026-04-14T09:16:03Z</time>
					</trkpt>
					<trkpt lat="48.821190" lon="1.970670">
						<ele>130</ele>
						<time>2026-04-14T09:16:07Z</time>
					</trkpt>
					<trkpt lat="48.821190" lon="1.970970">
						<ele>130</ele>
						<time>2026-04-14T09:16:10Z</time>
					</trkpt>
					<trkpt lat="48.821210" lon="1.971870">
						<ele>130</ele>
						<time>2026-04-14T09:16:21Z</time>
					</trkpt>
					<trkpt lat="48.821220" lon="1.971960">
						<ele>130</ele>
						<time>2026-04-14T09:16:22Z</time>
					</trkpt>
					<trkpt lat="48.821230" lon="1.972280">
						<ele>131</ele>
						<time>2026-04-14T09:16:26Z</time>
					</trkpt>
					<trkpt lat="48.821240" lon="1.972650">
						<ele>131</ele>
						<time>2026-04-14T09:16:30Z</time>
					</trkpt>
					<trkpt lat="48.821240" lon="1.972930">
						<ele>131</ele>
						<time>2026-04-14T09:16:33Z</time>
					</trkpt>
					<trkpt lat="48.821220" lon="1.972980">
						<ele>131</ele>
						<time>2026-04-14T09:16:34Z</time>
					</trkpt>
					<trkpt lat="48.821220" lon="1.973050">
						<ele>131</ele>
						<time>2026-04-14T09:16:35Z</time>
					</trkpt>
					<trkpt lat="48.821250" lon="1.973120">
						<ele>131</ele>
						<time>2026-04-14T09:16:36Z</time>
					</trkpt>
					<trkpt lat="48.821260" lon="1.973640">
						<ele>131</ele>
						<time>2026-04-14T09:16:42Z</time>
					</trkpt>
					<trkpt lat="48.821300" lon="1.974310">
						<ele>132</ele>
						<time>2026-04-14T09:16:50Z</time>
					</trkpt>
					<trkpt lat="48.821310" lon="1.974500">
						<ele>132</ele>
						<time>2026-04-14T09:16:52Z</time>
					</trkpt>
					<trkpt lat="48.821320" lon="1.975060">
						<ele>133</ele>
						<time>2026-04-14T09:16:59Z</time>
					</trkpt>
					<trkpt lat="48.821310" lon="1.975210">
						<ele>133</ele>
						<time>2026-04-14T09:17:00Z</time>
					</trkpt>
					<trkpt lat="48.821330" lon="1.975330">
						<ele>133</ele>
						<time>2026-04-14T09:17:02Z</time>
					</trkpt>
					<trkpt lat="48.821370" lon="1.975460">
						<ele>133</ele>
						<time>2026-04-14T09:17:04Z</time>
					</trkpt>
					<trkpt lat="48.821360" lon="1.975510">
						<ele>133</ele>
						<time>2026-04-14T09:17:04Z</time>
					</trkpt>
					<trkpt lat="48.821360" lon="1.975570">
						<ele>133</ele>
						<time>2026-04-14T09:17:05Z</time>
					</trkpt>
					<trkpt lat="48.821380" lon="1.975640">
						<ele>133</ele>
						<time>2026-04-14T09:17:06Z</time>
					</trkpt>
					<trkpt lat="48.821340" lon="1.975890">
						<ele>134</ele>
						<time>2026-04-14T09:17:09Z</time>
					</trkpt>
					<trkpt lat="48.821350" lon="1.976180">
						<ele>134</ele>
						<time>2026-04-14T09:17:12Z</time>
					</trkpt>
					<trkpt lat="48.821360" lon="1.976500">
						<ele>134</ele>
						<time>2026-04-14T09:17:16Z</time>
					</trkpt>
					<trkpt lat="48.821370" lon="1.976860">
						<ele>135</ele>
						<time>2026-04-14T09:17:20Z</time>
					</trkpt>
					<trkpt lat="48.821390" lon="1.977020">
						<ele>135</ele>
						<time>2026-04-14T09:17:22Z</time>
					</trkpt>
					<trkpt lat="48.821430" lon="1.977350">
						<ele>135</ele>
						<time>2026-04-14T09:17:26Z</time>
					</trkpt>
					<trkpt lat="48.821520" lon="1.977900">
						<ele>136</ele>
						<time>2026-04-14T09:17:33Z</time>
					</trkpt>
					<trkpt lat="48.821550" lon="1.978040">
						<ele>136</ele>
						<time>2026-04-14T09:17:34Z</time>
					</trkpt>
					<trkpt lat="48.821670" lon="1.978640">
						<ele>136</ele>
						<time>2026-04-14T09:17:42Z</time>
					</trkpt>
					<trkpt lat="48.821820" lon="1.979420">
						<ele>136</ele>
						<time>2026-04-14T09:17:51Z</time>
					</trkpt>
					<trkpt lat="48.821840" lon="1.979490">
						<ele>136</ele>
						<time>2026-04-14T09:17:52Z</time>
					</trkpt>
					<trkpt lat="48.821910" lon="1.979860">
						<ele>137</ele>
						<time>2026-04-14T09:17:57Z</time>
					</trkpt>
					<trkpt lat="48.821940" lon="1.980080">
						<ele>137</ele>
						<time>2026-04-14T09:17:59Z</time>
					</trkpt>
					<trkpt lat="48.821920" lon="1.980370">
						<ele>137</ele>
						<time>2026-04-14T09:18:03Z</time>
					</trkpt>
					<trkpt lat="48.821930" lon="1.980550">
						<ele>137</ele>
						<time>2026-04-14T09:18:05Z</time>
					</trkpt>
					<trkpt lat="48.821950" lon="1.980740">
						<ele>137</ele>
						<time>2026-04-14T09:18:07Z</time>
					</trkpt>
					<trkpt lat="48.821970" lon="1.980840">
						<ele>137</ele>
						<time>2026-04-14T09:18:08Z</time>
					</trkpt>
					<trkpt lat="48.822060" lon="1.981160">
						<ele>137</ele>
						<time>2026-04-14T09:18:12Z</time>
					</trkpt>
					<trkpt lat="48.822110" lon="1.981270">
						<ele>137</ele>
						<time>2026-04-14T09:18:14Z</time>
					</trkpt>
					<trkpt lat="48.822300" lon="1.981560">
						<ele>137</ele>
						<time>2026-04-14T09:18:19Z</time>
					</trkpt>
					<trkpt lat="48.822340" lon="1.981610">
						<ele>137</ele>
						<time>2026-04-14T09:18:20Z</time>
					</trkpt>
					<trkpt lat="48.822520" lon="1.981900">
						<ele>137</ele>
						<time>2026-04-14T09:18:24Z</time>
					</trkpt>
					<trkpt lat="48.822670" lon="1.982200">
						<ele>137</ele>
						<time>2026-04-14T09:18:29Z</time>
					</trkpt>
					<trkpt lat="48.822860" lon="1.982490">
						<ele>136</ele>
						<time>2026-04-14T09:18:33Z</time>
					</trkpt>
					<trkpt lat="48.822980" lon="1.982710">
						<ele>136</ele>
						<time>2026-04-14T09:18:37Z</time>
					</trkpt>
					<trkpt lat="48.823030" lon="1.982800">
						<ele>135</ele>
						<time>2026-04-14T09:18:38Z</time>
					</trkpt>
					<trkpt lat="48.823190" lon="1.983150">
						<ele>134</ele>
						<time>2026-04-14T09:18:43Z</time>
					</trkpt>
					<trkpt lat="48.823230" lon="1.983680">
						<ele>133</ele>
						<time>2026-04-14T09:18:49Z</time>
					</trkpt>
					<trkpt lat="48.823260" lon="1.983900">
						<ele>132</ele>
						<time>2026-04-14T09:18:52Z</time>
					</trkpt>
					<trkpt lat="48.823230" lon="1.983940">
						<ele>132</ele>
						<time>2026-04-14T09:18:53Z</time>
					</trkpt>
					<trkpt lat="48.823230" lon="1.983990">
						<ele>132</ele>
						<time>2026-04-14T09:18:53Z</time>
					</trkpt>
					<trkpt lat="48.823240" lon="1.984050">
						<ele>132</ele>
						<time>2026-04-14T09:18:54Z</time>
					</trkpt>
					<trkpt lat="48.823280" lon="1.984080">
						<ele>131</ele>
						<time>2026-04-14T09:18:55Z</time>
					</trkpt>
					<trkpt lat="48.823320" lon="1.984080">
						<ele>131</ele>
						<time>2026-04-14T09:18:56Z</time>
					</trkpt>
					<trkpt lat="48.823340" lon="1.984060">
						<ele>131</ele>
						<time>2026-04-14T09:18:56Z</time>
					</trkpt>
					<trkpt lat="48.823360" lon="1.984030">
						<ele>131</ele>
						<time>2026-04-14T09:18:57Z</time>
					</trkpt>
					<trkpt lat="48.823420" lon="1.984090">
						<ele>131</ele>
						<time>2026-04-14T09:18:58Z</time>
					</trkpt>
					<trkpt lat="48.823610" lon="1.984320">
						<ele>130</ele>
						<time>2026-04-14T09:19:02Z</time>
					</trkpt>
					<trkpt lat="48.823900" lon="1.984660">
						<ele>128</ele>
						<time>2026-04-14T09:19:09Z</time>
					</trkpt>
					<trkpt lat="48.824340" lon="1.985200">
						<ele>127</ele>
						<time>2026-04-14T09:19:19Z</time>
					</trkpt>
					<trkpt lat="48.824450" lon="1.985310">
						<ele>127</ele>
						<time>2026-04-14T09:19:21Z</time>
					</trkpt>
					<trkpt lat="48.824430" lon="1.985330">
						<ele>127</ele>
						<time>2026-04-14T09:19:21Z</time>
					</trkpt>
					<trkpt lat="48.824420" lon="1.985390">
						<ele>127</ele>
						<time>2026-04-14T09:19:22Z</time>
					</trkpt>
					<trkpt lat="48.824430" lon="1.985450">
						<ele>127</ele>
						<time>2026-04-14T09:19:23Z</time>
					</trkpt>
					<trkpt lat="48.824460" lon="1.985490">
						<ele>127</ele>
						<time>2026-04-14T09:19:24Z</time>
					</trkpt>
					<trkpt lat="48.824500" lon="1.985490">
						<ele>127</ele>
						<time>2026-04-14T09:19:24Z</time>
					</trkpt>
					<trkpt lat="48.824530" lon="1.985450">
						<ele>127</ele>
						<time>2026-04-14T09:19:25Z</time>
					</trkpt>
					<trkpt lat="48.824550" lon="1.985400">
						<ele>127</ele>
						<time>2026-04-14T09:19:26Z</time>
					</trkpt>
					<trkpt lat="48.824660" lon="1.985480">
						<ele>127</ele>
						<time>2026-04-14T09:19:28Z</time>
					</trkpt>
					<trkpt lat="48.825250" lon="1.986200">
						<ele>126</ele>
						<time>2026-04-14T09:19:41Z</time>
					</trkpt>
					<trkpt lat="48.825440" lon="1.986450">
						<ele>126</ele>
						<time>2026-04-14T09:19:46Z</time>
					</trkpt>
					<trkpt lat="48.825770" lon="1.986940">
						<ele>125</ele>
						<time>2026-04-14T09:19:54Z</time>
					</trkpt>
					<trkpt lat="48.825870" lon="1.987090">
						<ele>125</ele>
						<time>2026-04-14T09:19:57Z</time>
					</trkpt>
					<trkpt lat="48.825890" lon="1.987050">
						<ele>125</ele>
						<time>2026-04-14T09:19:57Z</time>
					</trkpt>
					<trkpt lat="48.825860" lon="1.987000">
						<ele>125</ele>
						<time>2026-04-14T09:19:58Z</time>
					</trkpt>
					<trkpt lat="48.825890" lon="1.987050">
						<ele>125</ele>
						<time>2026-04-14T09:19:59Z</time>
					</trkpt>
					<trkpt lat="48.825870" lon="1.987090">
						<ele>125</ele>
						<time>2026-04-14T09:19:59Z</time>
					</trkpt>
					<trkpt lat="48.826130" lon="1.987560">
						<ele>124</ele>
						<time>2026-04-14T09:20:07Z</time>
					</trkpt>
					<trkpt lat="48.826190" lon="1.987690">
						<ele>124</ele>
						<time>2026-04-14T09:20:08Z</time>
					</trkpt>
					<trkpt lat="48.826300" lon="1.987900">
						<ele>124</ele>
						<time>2026-04-14T09:20:12Z</time>
					</trkpt>
					<trkpt lat="48.826710" lon="1.988730">
						<ele>122</ele>
						<time>2026-04-14T09:20:24Z</time>
					</trkpt>
					<trkpt lat="48.826720" lon="1.988760">
						<ele>122</ele>
						<time>2026-04-14T09:20:24Z</time>
					</trkpt>
					<trkpt lat="48.827010" lon="1.989370">
						<ele>120</ele>
						<time>2026-04-14T09:20:33Z</time>
					</trkpt>
					<trkpt lat="48.827010" lon="1.989380">
						<ele>120</ele>
						<time>2026-04-14T09:20:33Z</time>
					</trkpt>
					<trkpt lat="48.827050" lon="1.989450">
						<ele>120</ele>
						<time>2026-04-14T09:20:34Z</time>
					</trkpt>
					<trkpt lat="48.827740" lon="1.990920">
						<ele>117</ele>
						<time>2026-04-14T09:20:55Z</time>
					</trkpt>
					<trkpt lat="48.827900" lon="1.991280">
						<ele>118</ele>
						<time>2026-04-14T09:21:00Z</time>
					</trkpt>
					<trkpt lat="48.828010" lon="1.991570">
						<ele>118</ele>
						<time>2026-04-14T09:21:04Z</time>
					</trkpt>
					<trkpt lat="48.828040" lon="1.991670">
						<ele>118</ele>
						<time>2026-04-14T09:21:06Z</time>
					</trkpt>
					<trkpt lat="48.828160" lon="1.991900">
						<ele>118</ele>
						<time>2026-04-14T09:21:09Z</time>
					</trkpt>
					<trkpt lat="48.828240" lon="1.992060">
						<ele>118</ele>
						<time>2026-04-14T09:21:11Z</time>
					</trkpt>
					<trkpt lat="48.828360" lon="1.992300">
						<ele>118</ele>
						<time>2026-04-14T09:21:15Z</time>
					</trkpt>
					<trkpt lat="48.828520" lon="1.992550">
						<ele>118</ele>
						<time>2026-04-14T09:21:19Z</time>
					</trkpt>
					<trkpt lat="48.829170" lon="1.993710">
						<ele>118</ele>
						<time>2026-04-14T09:21:37Z</time>
					</trkpt>
					<trkpt lat="48.829540" lon="1.994410">
						<ele>117</ele>
						<time>2026-04-14T09:21:47Z</time>
					</trkpt>
					<trkpt lat="48.829610" lon="1.994660">
						<ele>116</ele>
						<time>2026-04-14T09:21:50Z</time>
					</trkpt>
					<trkpt lat="48.829820" lon="1.995200">
						<ele>115</ele>
						<time>2026-04-14T09:21:58Z</time>
					</trkpt>
					<trkpt lat="48.829840" lon="1.995270">
						<ele>115</ele>
						<time>2026-04-14T09:21:59Z</time>
					</trkpt>
					<trkpt lat="48.829860" lon="1.995300">
						<ele>115</ele>
						<time>2026-04-14T09:21:59Z</time>
					</trkpt>
					<trkpt lat="48.829880" lon="1.995330">
						<ele>115</ele>
						<time>2026-04-14T09:22:00Z</time>
					</trkpt>
					<trkpt lat="48.829960" lon="1.995480">
						<ele>115</ele>
						<time>2026-04-14T09:22:02Z</time>
					</trkpt>
					<trkpt lat="48.829960" lon="1.995560">
						<ele>115</ele>
						<time>2026-04-14T09:22:03Z</time>
					</trkpt>
					<trkpt lat="48.829980" lon="1.995630">
						<ele>114</ele>
						<time>2026-04-14T09:22:04Z</time>
					</trkpt>
					<trkpt lat="48.830010" lon="1.995680">
						<ele>114</ele>
						<time>2026-04-14T09:22:05Z</time>
					</trkpt>
					<trkpt lat="48.830040" lon="1.995730">
						<ele>114</ele>
						<time>2026-04-14T09:22:05Z</time>
					</trkpt>
					<trkpt lat="48.830070" lon="1.996190">
						<ele>113</ele>
						<time>2026-04-14T09:22:11Z</time>
					</trkpt>
					<trkpt lat="48.830070" lon="1.996270">
						<ele>113</ele>
						<time>2026-04-14T09:22:12Z</time>
					</trkpt>
					<trkpt lat="48.830230" lon="1.996900">
						<ele>113</ele>
						<time>2026-04-14T09:22:20Z</time>
					</trkpt>
					<trkpt lat="48.830230" lon="1.997340">
						<ele>112</ele>
						<time>2026-04-14T09:22:25Z</time>
					</trkpt>
					<trkpt lat="48.830280" lon="1.997490">
						<ele>112</ele>
						<time>2026-04-14T09:22:27Z</time>
					</trkpt>
					<trkpt lat="48.830440" lon="1.997680">
						<ele>112</ele>
						<time>2026-04-14T09:22:30Z</time>
					</trkpt>
					<trkpt lat="48.830470" lon="1.997740">
						<ele>112</ele>
						<time>2026-04-14T09:22:31Z</time>
					</trkpt>
					<trkpt lat="48.830510" lon="1.997870">
						<ele>112</ele>
						<time>2026-04-14T09:22:33Z</time>
					</trkpt>
					<trkpt lat="48.830550" lon="1.997990">
						<ele>112</ele>
						<time>2026-04-14T09:22:35Z</time>
					</trkpt>
					<trkpt lat="48.830690" lon="1.998410">
						<ele>112</ele>
						<time>2026-04-14T09:22:40Z</time>
					</trkpt>
					<trkpt lat="48.830800" lon="1.998740">
						<ele>112</ele>
						<time>2026-04-14T09:22:44Z</time>
					</trkpt>
					<trkpt lat="48.830800" lon="1.998790">
						<ele>112</ele>
						<time>2026-04-14T09:22:45Z</time>
					</trkpt>
					<trkpt lat="48.830960" lon="1.999090">
						<ele>112</ele>
						<time>2026-04-14T09:22:49Z</time>
					</trkpt>
					<trkpt lat="48.830990" lon="1.999100">
						<ele>112</ele>
						<time>2026-04-14T09:22:50Z</time>
					</trkpt>
					<trkpt lat="48.831080" lon="1.999270">
						<ele>112</ele>
						<time>2026-04-14T09:22:53Z</time>
					</trkpt>
					<trkpt lat="48.831240" lon="1.999550">
						<ele>113</ele>
						<time>2026-04-14T09:22:57Z</time>
					</trkpt>
					<trkpt lat="48.831240" lon="1.999650">
						<ele>113</ele>
						<time>2026-04-14T09:22:58Z</time>
					</trkpt>
					<trkpt lat="48.831270" lon="1.999700">
						<ele>113</ele>
						<time>2026-04-14T09:22:59Z</time>
					</trkpt>
					<trkpt lat="48.831260" lon="1.999710">
						<ele>113</ele>
						<time>2026-04-14T09:22:59Z</time>
					</trkpt>
					<trkpt lat="48.830870" lon="2.000220">
						<ele>112</ele>
						<time>2026-04-14T09:23:08Z</time>
					</trkpt>
					<trkpt lat="48.830840" lon="2.000250">
						<ele>112</ele>
						<time>2026-04-14T09:23:09Z</time>
					</trkpt>
					<trkpt lat="48.830580" lon="2.000620">
						<ele>113</ele>
						<time>2026-04-14T09:23:15Z</time>
					</trkpt>
					<trkpt lat="48.830560" lon="2.000640">
						<ele>113</ele>
						<time>2026-04-14T09:23:16Z</time>
					</trkpt>
					<trkpt lat="48.830530" lon="2.000680">
						<ele>113</ele>
						<time>2026-04-14T09:23:16Z</time>
					</trkpt>
					<trkpt lat="48.830530" lon="2.000680">
						<ele>113</ele>
						<time>2026-04-14T09:23:16Z</time>
					</trkpt>
					</trkseg>
				</trk>
			</gpx>